Observation data for Dozier on 07/05/2020      Previous  Date  Next       Current Mesonet Observations  Soil Data  Daily Summary Page  Observations in Plain Language
KDO1 050500Z 30005KT 23/20 A2998 RMK A01 T02290198  RH  083%=      5-min Rain = 0
KDO1 050501Z 29005KT 23/20 A2998 RMK A01 T02290199  RH  083%=      5-min Rain = 0
KDO1 050502Z 29005KT 23/20 A2999 RMK A01 T02290198  RH  083%=      5-min Rain = 0
KDO1 050503Z 29005KT 23/20 A2999 RMK A01 T02290198  RH  083%=      5-min Rain = 0
KDO1 050504Z 29005KT 23/20 A2999 RMK A01 T02290198  RH  083%=      5-min Rain = 0
KDO1 050505Z 29005KT 23/20 A2999 RMK A01 T02290198  RH  083%=      5-min Rain = 0
KDO1 050506Z 29005KT 23/20 A2999 RMK A01 T02280197  RH  083%=      5-min Rain = 0
KDO1 050507Z 30005KT 23/20 A2999 RMK A01 T02290197  RH  083%=      5-min Rain = 0
KDO1 050508Z 30006KT 23/20 A2999 RMK A01 T02290197  RH  082%=      5-min Rain = 0
KDO1 050509Z 30006KT 23/20 A2999 RMK A01 T02290197  RH  082%=      5-min Rain = 0
KDO1 050510Z 30007KT 23/20 A2999 RMK A01 T02290197  RH  082%=      5-min Rain = 0
KDO1 050511Z 30006KT 23/20 A2999 RMK A01 T02290197  RH  082%=      5-min Rain = 0
KDO1 050512Z 30006KT 23/20 A2999 RMK A01 T02290197  RH  082%=      5-min Rain = 0
KDO1 050513Z 30007KT 23/20 A2999 RMK A01 T02290197  RH  082%=      5-min Rain = 0
KDO1 050514Z 30007KT 23/20 A2999 RMK A01 T02290196  RH  082%=      5-min Rain = 0
KDO1 050515Z 30006KT 23/20 A2999 RMK A01 T02290195  RH  081%=      5-min Rain = 0
KDO1 050516Z 30006KT 23/20 A2999 RMK A01 T02290195  RH  081%=      5-min Rain = 0
KDO1 050517Z 30006KT 23/20 A2999 RMK A01 T02300195  RH  081%=      5-min Rain = 0
KDO1 050518Z 30006KT 23/20 A2999 RMK A01 T02300195  RH  081%=      5-min Rain = 0
KDO1 050519Z 30005KT 23/20 A2999 RMK A01 T02300195  RH  081%=      5-min Rain = 0
KDO1 050520Z 29005KT 23/20 A2999 RMK A01 T02300195  RH  080%=      5-min Rain = 0
KDO1 050521Z 30006KT 23/20 A2999 RMK A01 T02310195  RH  080%=      5-min Rain = 0
KDO1 050522Z 30006KT 23/19 A2999 RMK A01 T02310194  RH  080%=      5-min Rain = 0
KDO1 050523Z 30006KT 23/19 A2999 RMK A01 T02310194  RH  080%=      5-min Rain = 0
KDO1 050524Z 30005KT 23/19 A2999 RMK A01 T02310194  RH  080%=      5-min Rain = 0
KDO1 050525Z 30005KT 23/19 A2999 RMK A01 T02320194  RH  079%=      5-min Rain = 0
KDO1 050526Z 30005KT 23/19 A2999 RMK A01 T02320194  RH  079%=      5-min Rain = 0
KDO1 050527Z 31005KT 23/19 A2999 RMK A01 T02320194  RH  079%=      5-min Rain = 0
KDO1 050528Z 30005KT 23/19 A2999 RMK A01 T02320194  RH  079%=      5-min Rain = 0
KDO1 050529Z 30006KT 23/19 A2999 RMK A01 T02320194  RH  079%=      5-min Rain = 0
KDO1 050530Z 30005KT 23/19 A2999 RMK A01 T02320194  RH  079%=      5-min Rain = 0
KDO1 050531Z 30005KT 23/19 A2999 RMK A01 T02310194  RH  079%=      5-min Rain = 0
KDO1 050532Z 30005KT 23/19 A2999 RMK A01 T02310194  RH  079%=      5-min Rain = 0
KDO1 050533Z 30005KT 23/19 A2999 RMK A01 T02310194  RH  079%=      5-min Rain = 0
KDO1 050534Z 30005KT 23/19 A2999 RMK A01 T02320194  RH  079%=      5-min Rain = 0
KDO1 050535Z 30005KT 23/19 A2999 RMK A01 T02320194  RH  079%=      5-min Rain = 0
KDO1 050536Z 30005KT 23/19 A2999 RMK A01 T02320194  RH  079%=      5-min Rain = 0
KDO1 050537Z 30006KT 23/19 A2999 RMK A01 T02320194  RH  079%=      5-min Rain = 0
KDO1 050538Z 31005KT 23/19 A2999 RMK A01 T02320194  RH  079%=      5-min Rain = 0
KDO1 050539Z 31005KT 23/19 A2999 RMK A01 T02320194  RH  079%=      5-min Rain = 0
KDO1 050540Z 30006KT 23/19 A2999 RMK A01 T02320193  RH  079%=      5-min Rain = 0
KDO1 050541Z 30005KT 23/19 A2999 RMK A01 T02320194  RH  079%=      5-min Rain = 0
KDO1 050542Z 30005KT 23/19 A2999 RMK A01 T02310193  RH  079%=      5-min Rain = 0
KDO1 050543Z 30006KT 23/19 A2999 RMK A01 T02320193  RH  079%=      5-min Rain = 0
KDO1 050544Z 30006KT 23/19 A2999 RMK A01 T02320193  RH  079%=      5-min Rain = 0
KDO1 050545Z 30006KT 23/19 A2999 RMK A01 T02330193  RH  079%=      5-min Rain = 0
KDO1 050546Z 30006KT 23/19 A2999 RMK A01 T02330194  RH  078%=      5-min Rain = 0
KDO1 050547Z 31006KT 23/19 A2999 RMK A01 T02340194  RH  078%=      5-min Rain = 0
KDO1 050548Z 31006KT 23/19 A2999 RMK A01 T02340193  RH  078%=      5-min Rain = 0
KDO1 050549Z 31006KT 23/19 A2999 RMK A01 T02340193  RH  078%=      5-min Rain = 0
KDO1 050550Z 31006KT 23/19 A2999 RMK A01 T02340193  RH  078%=      5-min Rain = 0
KDO1 050551Z 31004KT 23/19 A2999 RMK A01 T02340193  RH  078%=      5-min Rain = 0
KDO1 050552Z 32004KT 23/19 A2999 RMK A01 T02340193  RH  078%=      5-min Rain = 0
KDO1 050553Z 33003KT 23/19 A2999 RMK A01 T02340193  RH  078%=      5-min Rain = 0
KDO1 050554Z 35003KT 23/19 A2999 RMK A01 T02330193  RH  078%=      5-min Rain = 0
KDO1 050555Z 36003KT 23/19 A2999 RMK A01 T02320193  RH  079%=      5-min Rain = 0
KDO1 050556Z 36003KT 23/19 A2999 RMK A01 T02310193  RH  079%=      5-min Rain = 0
KDO1 050557Z 36003KT 23/19 A2998 RMK A01 T02310193  RH  079%=      5-min Rain = 0
KDO1 050558Z 36002KT 23/19 A2998 RMK A01 T02310193  RH  079%=      5-min Rain = 0
KDO1 050559Z 36002KT 23/19 A2999 RMK A01 T02310194  RH  080%=      5-min Rain = 0
KDO1 050600Z 35001KT 23/19 A2999 RMK A01 T02300194  RH  080%=      5-min Rain = 0
KDO1 050601Z 34002KT 23/19 A2999 RMK A01 T02290194  RH  080%=      5-min Rain = 0
KDO1 050602Z 34003KT 23/19 A2999 RMK A01 T02290194  RH  081%=      5-min Rain = 0
KDO1 050603Z 34003KT 23/19 A2999 RMK A01 T02280194  RH  081%=      5-min Rain = 0
KDO1 050604Z 34004KT 23/19 A2999 RMK A01 T02270194  RH  082%=      5-min Rain = 0
KDO1 050605Z 34004KT 23/19 A2999 RMK A01 T02260194  RH  082%=      5-min Rain = 0
KDO1 050606Z 35004KT 23/20 A2999 RMK A01 T02250195  RH  083%=      5-min Rain = 0
KDO1 050607Z 36005KT 22/20 A2999 RMK A01 T02240195  RH  084%=      5-min Rain = 0
KDO1 050608Z 36005KT 22/20 A2999 RMK A01 T02230195  RH  084%=      5-min Rain = 0
KDO1 050609Z 00005KT 22/20 A2998 RMK A01 T02230195  RH  084%=      5-min Rain = 0
KDO1 050610Z 01005KT 22/20 A2998 RMK A01 T02230195  RH  085%=      5-min Rain = 0
KDO1 050611Z 01005KT 22/20 A2999 RMK A01 T02220195  RH  085%=      5-min Rain = 0
KDO1 050612Z 36006KT 22/20 A2999 RMK A01 T02210195  RH  085%=      5-min Rain = 0
KDO1 050613Z 36006KT 22/20 A2999 RMK A01 T02200195  RH  086%=      5-min Rain = 0
KDO1 050614Z 36006KT 22/20 A2999 RMK A01 T02200196  RH  086%=      5-min Rain = 0
KDO1 050615Z 36005KT 22/20 A2999 RMK A01 T02200196  RH  086%=      5-min Rain = 0
KDO1 050616Z 35005KT 22/20 A2999 RMK A01 T02200196  RH  086%=      5-min Rain = 0
KDO1 050617Z 35005KT 22/20 A2999 RMK A01 T02200197  RH  087%=      5-min Rain = 0
KDO1 050618Z 35005KT 22/20 A2999 RMK A01 T02200197  RH  087%=      5-min Rain = 0
KDO1 050619Z 35005KT 22/20 A2999 RMK A01 T02210198  RH  087%=      5-min Rain = 0
KDO1 050620Z 35005KT 22/20 A2999 RMK A01 T02210198  RH  087%=      5-min Rain = 0
KDO1 050621Z 35005KT 22/20 A2999 RMK A01 T02210198  RH  087%=      5-min Rain = 0
KDO1 050622Z 35005KT 22/20 A2999 RMK A01 T02210198  RH  087%=      5-min Rain = 0
KDO1 050623Z 35005KT 22/20 A2999 RMK A01 T02210198  RH  087%=      5-min Rain = 0
KDO1 050624Z 35005KT 22/20 A2999 RMK A01 T02210199  RH  087%=      5-min Rain = 0
KDO1 050625Z 35005KT 22/20 A2999 RMK A01 T02210199  RH  087%=      5-min Rain = 0
KDO1 050626Z 35005KT 22/20 A2999 RMK A01 T02220199  RH  087%=      5-min Rain = 0
KDO1 050627Z 35005KT 22/20 A2999 RMK A01 T02220198  RH  087%=      5-min Rain = 0
KDO1 050628Z 34005KT 22/20 A2999 RMK A01 T02220198  RH  086%=      5-min Rain = 0
KDO1 050629Z 34005KT 22/20 A2999 RMK A01 T02220198  RH  086%=      5-min Rain = 0
KDO1 050630Z 34005KT 22/20 A2998 RMK A01 T02220198  RH  086%=      5-min Rain = 0
KDO1 050631Z 34006KT 22/20 A2998 RMK A01 T02230198  RH  086%=      5-min Rain = 0
KDO1 050632Z 34006KT 22/20 A2998 RMK A01 T02230198  RH  086%=      5-min Rain = 0
KDO1 050633Z 34004KT 22/20 A2998 RMK A01 T02230198  RH  085%=      5-min Rain = 0
KDO1 050634Z 34005KT 22/20 A2998 RMK A01 T02240198  RH  085%=      5-min Rain = 0
KDO1 050635Z 34005KT 22/20 A2998 RMK A01 T02240197  RH  085%=      5-min Rain = 0
KDO1 050636Z 34004KT 23/20 A2998 RMK A01 T02250197  RH  084%=      5-min Rain = 0
KDO1 050637Z 34005KT 23/20 A2998 RMK A01 T02260197  RH  084%=      5-min Rain = 0
KDO1 050638Z 33005KT 23/20 A2998 RMK A01 T02260197  RH  083%=      5-min Rain = 0
KDO1 050639Z 33004KT 23/20 A2998 RMK A01 T02270197  RH  083%=      5-min Rain = 0
KDO1 050640Z 34005KT 23/20 A2999 RMK A01 T02280197  RH  083%=      5-min Rain = 0
KDO1 050641Z 34005KT 23/20 A2999 RMK A01 T02280196  RH  082%=      5-min Rain = 0
KDO1 050642Z 34005KT 23/20 A2999 RMK A01 T02290196  RH  082%=      5-min Rain = 0
KDO1 050643Z 34004KT 23/20 A2999 RMK A01 T02290196  RH  081%=      5-min Rain = 0
KDO1 050644Z 34004KT 23/20 A2999 RMK A01 T02300196  RH  081%=      5-min Rain = 0
KDO1 050645Z 35003KT 23/20 A2999 RMK A01 T02300196  RH  081%=      5-min Rain = 0
KDO1 050646Z 35003KT 23/20 A2999 RMK A01 T02310196  RH  081%=      5-min Rain = 0
KDO1 050647Z 36003KT 23/20 A2999 RMK A01 T02310196  RH  081%=      5-min Rain = 0
KDO1 050648Z 35003KT 23/20 A2999 RMK A01 T02310196  RH  081%=      5-min Rain = 0
KDO1 050649Z 36004KT 23/20 A2999 RMK A01 T02310196  RH  080%=      5-min Rain = 0
KDO1 050650Z 36003KT 23/20 A2999 RMK A01 T02310196  RH  080%=      5-min Rain = 0
KDO1 050651Z 36003KT 23/20 A2999 RMK A01 T02320196  RH  080%=      5-min Rain = 0
KDO1 050652Z 01003KT 23/20 A2999 RMK A01 T02320197  RH  081%=      5-min Rain = 0
KDO1 050653Z 00004KT 23/20 A2999 RMK A01 T02310196  RH  081%=      5-min Rain = 0
KDO1 050654Z 00003KT 23/20 A2999 RMK A01 T02320197  RH  081%=      5-min Rain = 0
KDO1 050655Z 00003KT 23/20 A2999 RMK A01 T02310197  RH  081%=      5-min Rain = 0
KDO1 050656Z 01003KT 23/20 A2999 RMK A01 T02310196  RH  081%=      5-min Rain = 0
KDO1 050657Z 01004KT 23/20 A2999 RMK A01 T02310196  RH  081%=      5-min Rain = 0
KDO1 050658Z 01004KT 23/20 A2999 RMK A01 T02310196  RH  081%=      5-min Rain = 0
KDO1 050659Z 01003KT 23/20 A2999 RMK A01 T02310196  RH  081%=      5-min Rain = 0
KDO1 050700Z 01003KT 23/20 A2999 RMK A01 T02310196  RH  081%=      5-min Rain = 0
KDO1 050701Z 01003KT 23/20 A2999 RMK A01 T02300195  RH  081%=      5-min Rain = 0
KDO1 050702Z 01004KT 23/20 A2999 RMK A01 T02300195  RH  081%=      5-min Rain = 0
KDO1 050703Z 36004KT 23/20 A2999 RMK A01 T02310195  RH  080%=      5-min Rain = 0
KDO1 050704Z 00004KT 23/20 A2999 RMK A01 T02310195  RH  080%=      5-min Rain = 0
KDO1 050705Z 01004KT 23/20 A2999 RMK A01 T02310195  RH  080%=      5-min Rain = 0
KDO1 050706Z 01004KT 23/19 A2999 RMK A01 T02310194  RH  080%=      5-min Rain = 0
KDO1 050707Z 01004KT 23/19 A2999 RMK A01 T02310194  RH  080%=      5-min Rain = 0
KDO1 050708Z 01004KT 23/20 A2999 RMK A01 T02320195  RH  080%=      5-min Rain = 0
KDO1 050709Z 36004KT 23/19 A2999 RMK A01 T02310194  RH  079%=      5-min Rain = 0
KDO1 050710Z 00005KT 23/19 A2999 RMK A01 T02320194  RH  079%=      5-min Rain = 0
KDO1 050711Z 01005KT 23/19 A2999 RMK A01 T02310194  RH  079%=      5-min Rain = 0
KDO1 050712Z 01005KT 23/19 A2999 RMK A01 T02310194  RH  079%=      5-min Rain = 0
KDO1 050713Z 00004KT 23/19 A2999 RMK A01 T02320194  RH  079%=      5-min Rain = 0
KDO1 050714Z 00004KT 23/19 A2999 RMK A01 T02320194  RH  079%=      5-min Rain = 0
KDO1 050715Z 00004KT 23/19 A2999 RMK A01 T02320194  RH  079%=      5-min Rain = 0
KDO1 050716Z 36005KT 23/20 A2999 RMK A01 T02320195  RH  079%=      5-min Rain = 0
KDO1 050717Z 35005KT 23/20 A2999 RMK A01 T02320195  RH  080%=      5-min Rain = 0
KDO1 050718Z 34005KT 23/20 A2999 RMK A01 T02320195  RH  080%=      5-min Rain = 0
KDO1 050719Z 33006KT 23/20 A30 RMK A01 T02320195  RH  080%=      5-min Rain = 0
KDO1 050720Z 32006KT 23/20 A30 RMK A01 T02320195  RH  080%=      5-min Rain = 0
KDO1 050721Z 31007KT 23/20 A3001 RMK A01 T02320195  RH  080%=      5-min Rain = 0
KDO1 050722Z 30008KT 23/20 A3002 RMK A01 T02330195  RH  079%=      5-min Rain = 0
KDO1 050723Z 29011KT 23/20 A3003 RMK A01 T02340195  RH  079%=      5-min Rain = 0
KDO1 050724Z 28013G19KT 24/20 A3003 RMK A01 T02380195  RH  077%=      5-min Rain = 0
KDO1 050725Z 29012KT 24/20 A3003 RMK A01 T02400195  RH  076%=      5-min Rain = 0
KDO1 050726Z 29013KT 24/19 A3003 RMK A01 T02380194  RH  077%=      5-min Rain = 0
KDO1 050727Z 29013KT 24/19 A3003 RMK A01 T02360194  RH  077%=      5-min Rain = 0
KDO1 050728Z 29012G17KT 24/19 A3003 RMK A01 T02350194  RH  078%=      5-min Rain = 0
KDO1 050729Z 29012KT 24/19 A3003 RMK A01 T02350193  RH  077%=      5-min Rain = 0
KDO1 050730Z 29012KT 24/19 A3003 RMK A01 T02380194  RH  076%=      5-min Rain = 0
KDO1 050731Z 29010KT 24/19 A3003 RMK A01 T02390193  RH  075%=      5-min Rain = 0
KDO1 050732Z 28011G16KT 24/19 A3003 RMK A01 T02420193  RH  074%=      5-min Rain = 0
KDO1 050733Z 28011KT 24/19 A3003 RMK A01 T02440193  RH  073%=      5-min Rain = 0
KDO1 050734Z 28011KT 25/19 A3003 RMK A01 T02460192  RH  072%=      5-min Rain = 0
KDO1 050735Z 28011KT 25/19 A3003 RMK A01 T02510190  RH  069%=      5-min Rain = 0
KDO1 050736Z 29010KT 26/19 A3003 RMK A01 T02580186  RH  065%=      5-min Rain = 0
KDO1 050737Z 30009KT 27/19 A3003 RMK A01 T02650186  RH  062%=      5-min Rain = 0
KDO1 050738Z 30007KT 27/19 A3003 RMK A01 T02690187  RH  061%=      5-min Rain = 0
KDO1 050739Z 30008KT 27/19 A3003 RMK A01 T02700188  RH  061%=      5-min Rain = 0
KDO1 050740Z 31010G18KT 27/19 A3004 RMK A01 T02690189  RH  062%=      5-min Rain = 0
KDO1 050741Z 30012G18KT 27/19 A3004 RMK A01 T02670191  RH  063%=      5-min Rain = 0
KDO1 050742Z 30014G22KT 27/19 A3004 RMK A01 T02650192  RH  064%=      5-min Rain = 0
KDO1 050743Z 31015G20KT 26/19 A3003 RMK A01 T02620193  RH  066%=      5-min Rain = 0
KDO1 050744Z 30015KT 26/19 A3004 RMK A01 T02600194  RH  067%=      5-min Rain = 0
KDO1 050745Z 31014KT 26/19 A3004 RMK A01 T02570194  RH  068%=      5-min Rain = 0
KDO1 050746Z 31013KT 26/19 A3004 RMK A01 T02550194  RH  069%=      5-min Rain = 0
KDO1 050747Z 31011KT 25/19 A3004 RMK A01 T02540194  RH  069%=      5-min Rain = 0
KDO1 050748Z 30010KT 25/20 A3004 RMK A01 T02530195  RH  070%=      5-min Rain = 0
KDO1 050749Z 29010KT 25/20 A3004 RMK A01 T02520195  RH  070%=      5-min Rain = 0
KDO1 050750Z 30010G15KT 25/20 A3004 RMK A01 T02520195  RH  071%=      5-min Rain = 0
KDO1 050751Z 29011KT 25/20 A3004 RMK A01 T02510195  RH  071%=      5-min Rain = 0
KDO1 050752Z 29012KT 25/20 A3004 RMK A01 T02500195  RH  072%=      5-min Rain = 0
KDO1 050753Z 30012KT 25/20 A3004 RMK A01 T02480196  RH  073%=      5-min Rain = 0
KDO1 050754Z 30011KT 25/20 A3004 RMK A01 T02470196  RH  073%=      5-min Rain = 0
KDO1 050755Z 30012G19KT 25/20 A3004 RMK A01 T02450195  RH  074%=      5-min Rain = 0
KDO1 050756Z 29012G17KT 24/20 A3004 RMK A01 T02440195  RH  074%=      5-min Rain = 0
KDO1 050757Z 29015KT 24/20 A3004 RMK A01 T02420195  RH  075%=      5-min Rain = 0
KDO1 050758Z 30011KT 24/19 A3004 RMK A01 T02410194  RH  075%=      5-min Rain = 0
KDO1 050759Z 29012KT 24/19 A3004 RMK A01 T02390194  RH  076%=      5-min Rain = 0
KDO1 050800Z 29013KT 24/19 A3004 RMK A01 T02380193  RH  076%=      5-min Rain = 0
KDO1 050801Z 30013KT 24/19 A3003 RMK A01 T02370192  RH  076%=      5-min Rain = 0
KDO1 050802Z 30011KT 24/19 A3004 RMK A01 T02370191  RH  075%=      5-min Rain = 0
KDO1 050803Z 30009KT 24/19 A3004 RMK A01 T02360191  RH  076%=      5-min Rain = 0
KDO1 050804Z 29013G19KT 24/19 A3004 RMK A01 T02360191  RH  076%=      5-min Rain = 0
KDO1 050805Z 30012KT 24/19 A3004 RMK A01 T02360191  RH  076%=      5-min Rain = 0
KDO1 050806Z 31010G15KT 24/19 A3004 RMK A01 T02350191  RH  076%=      5-min Rain = 0
KDO1 050807Z 30009G14KT 24/19 A3004 RMK A01 T02350193  RH  077%=      5-min Rain = 0
KDO1 050808Z 31011KT 23/19 A3004 RMK A01 T02340194  RH  078%=      5-min Rain = 0
KDO1 050809Z 32012G17KT 23/19 A3004 RMK A01 T02330194  RH  079%=      5-min Rain = 0
KDO1 050810Z 32013KT 23/19 A3004 RMK A01 T02330194  RH  078%=      5-min Rain = 0
KDO1 050811Z 32011KT 23/20 A3004 RMK A01 T02330195  RH  079%=      5-min Rain = 0
KDO1 050812Z 33011KT 23/19 A3004 RMK A01 T02330194  RH  079%=      5-min Rain = 0
KDO1 050813Z 32011G17KT 23/19 A3004 RMK A01 T02330194  RH  079%=      5-min Rain = 0
KDO1 050814Z 31011KT 23/20 A3004 RMK A01 T02320196  RH  080%=      5-min Rain = 0
KDO1 050815Z 31011KT 23/20 A3004 RMK A01 T02310195  RH  080%=      5-min Rain = 0
KDO1 050816Z 32011KT 23/19 A3004 RMK A01 T02310193  RH  079%=      5-min Rain = 0
KDO1 050817Z 31010G16KT 23/19 A3003 RMK A01 T02310193  RH  079%=      5-min Rain = 0
KDO1 050818Z 32015G20KT 23/19 A3004 RMK A01 T02310194  RH  080%=      5-min Rain = 0
KDO1 050819Z 32013KT 23/19 A3004 RMK A01 T02310194  RH  080%=      5-min Rain = 0
KDO1 050820Z 32012KT 23/20 A3004 RMK A01 T02320196  RH  080%=      5-min Rain = 0
KDO1 050821Z 32010KT 23/20 A3004 RMK A01 T02310196  RH  081%=      5-min Rain = 0
KDO1 050822Z 32010KT 23/20 A3004 RMK A01 T02300197  RH  081%=      5-min Rain = 0
KDO1 050823Z 32011KT 23/20 A3004 RMK A01 T02300197  RH  082%=      5-min Rain = 0
KDO1 050824Z 32010KT 23/20 A3004 RMK A01 T02290197  RH  082%=      5-min Rain = 0
KDO1 050825Z 32009G14KT 23/20 A3004 RMK A01 T02290197  RH  082%=      5-min Rain = 0
KDO1 050826Z 32010KT 23/20 A3004 RMK A01 T02290196  RH  082%=      5-min Rain = 0
KDO1 050827Z 32011KT 23/20 A3003 RMK A01 T02290195  RH  081%=      5-min Rain = 0
KDO1 050828Z 32011G16KT 23/20 A3003 RMK A01 T02290195  RH  081%=      5-min Rain = 0
KDO1 050829Z 32010KT 23/19 A3003 RMK A01 T02290194  RH  081%=      5-min Rain = 0
KDO1 050830Z 32012KT 23/19 A3003 RMK A01 T02290193  RH  080%=      5-min Rain = 0
KDO1 050831Z 32010KT 23/19 A3003 RMK A01 T02290192  RH  080%=      5-min Rain = 0
KDO1 050832Z 32010KT 23/19 A3003 RMK A01 T02290192  RH  080%=      5-min Rain = 0
KDO1 050833Z 32011G16KT 23/19 A3003 RMK A01 T02290191  RH  079%=      5-min Rain = 0
KDO1 050834Z 32013KT 23/19 A3003 RMK A01 T02290189  RH  078%=      5-min Rain = 0
KDO1 050835Z 33013KT 23/19 A3003 RMK A01 T02290187  RH  077%=      5-min Rain = 0
KDO1 050836Z 33011KT 23/19 A3003 RMK A01 T02300187  RH  077%=      5-min Rain = 0
KDO1 050837Z 32011KT 23/19 A3003 RMK A01 T02300188  RH  077%=      5-min Rain = 0
KDO1 050838Z 31011KT 23/19 A3003 RMK A01 T02290189  RH  078%=      5-min Rain = 0
KDO1 050839Z 31010KT 23/19 A3003 RMK A01 T02290189  RH  078%=      5-min Rain = 0
KDO1 050840Z 31013KT 23/19 A3003 RMK A01 T02290188  RH  078%=      5-min Rain = 0
KDO1 050841Z 32013KT 23/19 A3003 RMK A01 T02290187  RH  077%=      5-min Rain = 0
KDO1 050842Z 32012KT 23/19 A3003 RMK A01 T02290186  RH  077%=      5-min Rain = 0
KDO1 050843Z 31013KT 23/19 A3003 RMK A01 T02290186  RH  077%=      5-min Rain = 0
KDO1 050844Z 31010KT 23/19 A3002 RMK A01 T02290187  RH  077%=      5-min Rain = 0
KDO1 050845Z 30011KT 23/19 A3002 RMK A01 T02280186  RH  077%=      5-min Rain = 0
KDO1 050846Z 31010KT 23/19 A3002 RMK A01 T02280187  RH  077%=      5-min Rain = 0
KDO1 050847Z 30011KT 23/19 A3002 RMK A01 T02280187  RH  077%=      5-min Rain = 0
KDO1 050848Z 31012KT 23/19 A3002 RMK A01 T02280187  RH  078%=      5-min Rain = 0
KDO1 050849Z 31010KT 23/19 A3002 RMK A01 T02270187  RH  078%=      5-min Rain = 0
KDO1 050850Z 31008KT 23/19 A3002 RMK A01 T02270188  RH  078%=      5-min Rain = 0
KDO1 050851Z 31008KT 23/19 A3002 RMK A01 T02260189  RH  079%=      5-min Rain = 0
KDO1 050852Z 32008KT 23/19 A3002 RMK A01 T02260190  RH  080%=      5-min Rain = 0
KDO1 050853Z 31010KT 22/19 A3002 RMK A01 T02240190  RH  081%=      5-min Rain = 0
KDO1 050854Z 31010G15KT 22/19 A3002 RMK A01 T02230189  RH  081%=      5-min Rain = 0
KDO1 050855Z 31014KT 22/19 A3002 RMK A01 T02230189  RH  081%=      5-min Rain = 0
KDO1 050856Z 32013KT 22/19 A3002 RMK A01 T02230189  RH  081%=      5-min Rain = 0
KDO1 050857Z 32013G19KT 22/19 A3002 RMK A01 T02230189  RH  081%=      5-min Rain = 0
KDO1 050858Z 32016KT 22/19 A3001 RMK A01 T02230189  RH  081%=      5-min Rain = 0
KDO1 050859Z 32014G19KT 22/19 A3002 RMK A01 T02230188  RH  081%=      5-min Rain = 0
KDO1 050900Z 32014KT 22/19 A3001 RMK A01 T02220189  RH  081%=      5-min Rain = 0
KDO1 050901Z 32015KT 22/19 A3001 RMK A01 T02220189  RH  082%=      5-min Rain = 0
KDO1 050902Z 31012G18KT 22/19 A3002 RMK A01 T02210189  RH  082%=      5-min Rain = 0
KDO1 050903Z 30011KT 22/19 A3002 RMK A01 T02210189  RH  082%=      5-min Rain = 0
KDO1 050904Z 31010G16KT 22/19 A3002 RMK A01 T02210188  RH  082%=      5-min Rain = 0
KDO1 050905Z 31010G15KT 22/19 A3002 RMK A01 T02210189  RH  082%=      5-min Rain = 0
KDO1 050906Z 31008KT 22/19 A3002 RMK A01 T02210189  RH  082%=      5-min Rain = 0
KDO1 050907Z 31009KT 22/19 A3002 RMK A01 T02200189  RH  083%=      5-min Rain = 0
KDO1 050908Z 30007KT 22/19 A3002 RMK A01 T02200189  RH  083%=      5-min Rain = 0
KDO1 050909Z 30010G15KT 22/19 A3002 RMK A01 T02200189  RH  083%=      5-min Rain = 0
KDO1 050910Z 31012G17KT 22/19 A3002 RMK A01 T02200189  RH  083%=      5-min Rain = 0
KDO1 050911Z 31010KT 22/19 A3001 RMK A01 T02200188  RH  082%=      5-min Rain = 0
KDO1 050912Z 31015KT 22/19 A3001 RMK A01 T02200187  RH  082%=      5-min Rain = 0
KDO1 050913Z 31013KT 22/19 A3001 RMK A01 T02210188  RH  082%=      5-min Rain = 0
KDO1 050914Z 31010G17KT 22/19 A3001 RMK A01 T02200188  RH  082%=      5-min Rain = 0
KDO1 050915Z 32012KT 22/19 A3001 RMK A01 T02210188  RH  082%=      5-min Rain = 0
KDO1 050916Z 31013KT 22/19 A3001 RMK A01 T02210188  RH  082%=      5-min Rain = 0
KDO1 050917Z 31011KT 22/19 A3001 RMK A01 T02200189  RH  082%=      5-min Rain = 0
KDO1 050918Z 31011KT 22/19 A3001 RMK A01 T02200189  RH  083%=      5-min Rain = 0
KDO1 050919Z 31011KT 22/19 A3001 RMK A01 T02190190  RH  083%=      5-min Rain = 0
KDO1 050920Z 31011KT 22/19 A3001 RMK A01 T02190190  RH  084%=      5-min Rain = 0
KDO1 050921Z 30011KT 22/19 A3001 RMK A01 T02190191  RH  084%=      5-min Rain = 0
KDO1 050922Z 31011G16KT 22/19 A3001 RMK A01 T02180191  RH  085%=      5-min Rain = 0
KDO1 050923Z 31013KT 22/19 A3001 RMK A01 T02180191  RH  085%=      5-min Rain = 0
KDO1 050924Z 30010KT 22/19 A3002 RMK A01 T02180192  RH  085%=      5-min Rain = 0
KDO1 050925Z 30011KT 22/19 A3001 RMK A01 T02180192  RH  085%=      5-min Rain = 0
KDO1 050926Z 30011G17KT 22/19 A3001 RMK A01 T02180193  RH  086%=      5-min Rain = 0
KDO1 050927Z 30011G16KT 22/19 A3001 RMK A01 T02170193  RH  086%=      5-min Rain = 0
KDO1 050928Z 30009KT 22/19 A3001 RMK A01 T02170193  RH  086%=      5-min Rain = 0
KDO1 050929Z 29012KT 22/19 A3001 RMK A01 T02170192  RH  086%=      5-min Rain = 0
KDO1 050930Z 28012KT 22/19 A3001 RMK A01 T02170192  RH  086%=      5-min Rain = 0
KDO1 050931Z 30010KT 22/19 A3001 RMK A01 T02170192  RH  086%=      5-min Rain = 0
KDO1 050932Z 29010KT 22/19 A3001 RMK A01 T02170193  RH  086%=      5-min Rain = 0
KDO1 050933Z 29011KT 22/19 A3001 RMK A01 T02180192  RH  086%=      5-min Rain = 0
KDO1 050934Z 29009KT 22/19 A30 RMK A01 T02170192  RH  085%=      5-min Rain = 0
KDO1 050935Z 29010KT 22/19 A30 RMK A01 T02180192  RH  085%=      5-min Rain = 0
KDO1 050936Z 28010KT 22/19 A3001 RMK A01 T02180192  RH  085%=      5-min Rain = 0
KDO1 050937Z 29010KT 22/19 A3001 RMK A01 T02180192  RH  085%=      5-min Rain = 0
KDO1 050938Z 29011KT 22/19 A3001 RMK A01 T02180192  RH  085%=      5-min Rain = 0
KDO1 050939Z 29011KT 22/19 A3001 RMK A01 T02180192  RH  085%=      5-min Rain = 0
KDO1 050940Z 29011KT 22/19 A3001 RMK A01 T02180192  RH  085%=      5-min Rain = 0
KDO1 050941Z 29011KT 22/19 A3001 RMK A01 T02180192  RH  085%=      5-min Rain = 0
KDO1 050942Z 29010KT 22/19 A3001 RMK A01 T02180193  RH  086%=      5-min Rain = 0
KDO1 050943Z 29011KT 22/19 A3001 RMK A01 T02180192  RH  085%=      5-min Rain = 0
KDO1 050944Z 29010KT 22/19 A3001 RMK A01 T02180192  RH  085%=      5-min Rain = 0
KDO1 050945Z 29008KT 22/19 A30 RMK A01 T02180192  RH  085%=      5-min Rain = 0
KDO1 050946Z 29007KT 22/19 A30 RMK A01 T02180192  RH  085%=      5-min Rain = 0
KDO1 050947Z 29008KT 22/19 A30 RMK A01 T02180191  RH  085%=      5-min Rain = 0
KDO1 050948Z 29008KT 22/19 A30 RMK A01 T02180191  RH  085%=      5-min Rain = 0
KDO1 050949Z 29008KT 22/19 A30 RMK A01 T02180191  RH  085%=      5-min Rain = 0
KDO1 050950Z 29008KT 22/19 A30 RMK A01 T02180191  RH  085%=      5-min Rain = 0
KDO1 050951Z 29008KT 22/19 A30 RMK A01 T02180190  RH  084%=      5-min Rain = 0
KDO1 050952Z 28008KT 22/19 A30 RMK A01 T02180190  RH  084%=      5-min Rain = 0
KDO1 050953Z 28008KT 22/19 A30 RMK A01 T02180190  RH  084%=      5-min Rain = 0
KDO1 050954Z 28008KT 22/19 A30 RMK A01 T02180190  RH  084%=      5-min Rain = 0
KDO1 050955Z 27007KT 22/19 A30 RMK A01 T02180190  RH  084%=      5-min Rain = 0
KDO1 050956Z 27006KT 22/19 A30 RMK A01 T02180190  RH  084%=      5-min Rain = 0
KDO1 050957Z 29007KT 22/19 A30 RMK A01 T02190189  RH  083%=      5-min Rain = 0
KDO1 050958Z 29006KT 22/19 A30 RMK A01 T02190188  RH  083%=      5-min Rain = 0
KDO1 050959Z 28006KT 22/19 A30 RMK A01 T02190188  RH  082%=      5-min Rain = 0
KDO1 051000Z 28004KT 22/19 A30 RMK A01 T02200187  RH  082%=      5-min Rain = 0
KDO1 051001Z 27003KT 22/19 A30 RMK A01 T02200187  RH  082%=      5-min Rain = 0
KDO1 051002Z 24005KT 22/19 A30 RMK A01 T02200187  RH  082%=      5-min Rain = 0
KDO1 051003Z 24005KT 22/19 A30 RMK A01 T02210187  RH  081%=      5-min Rain = 0
KDO1 051004Z 25005KT 22/19 A2999 RMK A01 T02210187  RH  081%=      5-min Rain = 0
KDO1 051005Z 26005KT 22/19 A2999 RMK A01 T02210188  RH  082%=      5-min Rain = 0
KDO1 051006Z 27004KT 22/19 A2999 RMK A01 T02200188  RH  082%=      5-min Rain = 0
KDO1 051007Z 27003KT 22/19 A2999 RMK A01 T02200188  RH  082%=      5-min Rain = 0
KDO1 051008Z 27003KT 22/19 A2999 RMK A01 T02200188  RH  082%=      5-min Rain = 0
KDO1 051009Z 28003KT 22/19 A2999 RMK A01 T02200188  RH  082%=      5-min Rain = 0
KDO1 051010Z 27003KT 22/19 A2999 RMK A01 T02200189  RH  083%=      5-min Rain = 0
KDO1 051011Z 27002KT 22/19 A2999 RMK A01 T02190188  RH  083%=      5-min Rain = 0
KDO1 051012Z 28001KT 22/19 A2999 RMK A01 T02190188  RH  083%=      5-min Rain = 0
KDO1 051013Z 25001KT 22/19 A2999 RMK A01 T02190188  RH  083%=      5-min Rain = 0
KDO1 051014Z 22000KT 22/19 A2999 RMK A01 T02190188  RH  083%=      5-min Rain = 0
KDO1 051015Z 19000KT 22/19 A2999 RMK A01 T02190188  RH  082%=      5-min Rain = 0
KDO1 051016Z 16002KT 22/19 A2999 RMK A01 T02190188  RH  082%=      5-min Rain = 0
KDO1 051017Z 15002KT 22/19 A2999 RMK A01 T02190188  RH  083%=      5-min Rain = 0
KDO1 051018Z 14003KT 22/19 A2999 RMK A01 T02190189  RH  083%=      5-min Rain = 0
KDO1 051019Z 14004KT 22/19 A2999 RMK A01 T02190189  RH  083%=      5-min Rain = 0
KDO1 051020Z 14004KT 22/19 A2999 RMK A01 T02190189  RH  083%=      5-min Rain = 0
KDO1 051021Z 14003KT 22/19 A2999 RMK A01 T02190189  RH  083%=      5-min Rain = 0
KDO1 051022Z 14003KT 22/19 A2999 RMK A01 T02180188  RH  083%=      5-min Rain = 0
KDO1 051023Z 14002KT 22/19 A2999 RMK A01 T02180188  RH  083%=      5-min Rain = 0
KDO1 051024Z 14001KT 22/19 A2999 RMK A01 T02180188  RH  083%=      5-min Rain = 0
KDO1 051025Z 14000KT 22/19 A2999 RMK A01 T02180188  RH  083%=      5-min Rain = 0
KDO1 051026Z 11001KT 22/19 A2999 RMK A01 T02180188  RH  083%=      5-min Rain = 0
KDO1 051027Z 10002KT 22/19 A2999 RMK A01 T02180188  RH  083%=      5-min Rain = 0
KDO1 051028Z 09002KT 22/19 A2999 RMK A01 T02180188  RH  083%=      5-min Rain = 0
KDO1 051029Z 09002KT 22/19 A2999 RMK A01 T02180188  RH  083%=      5-min Rain = 0
KDO1 051030Z 10002KT 22/19 A2999 RMK A01 T02180188  RH  083%=      5-min Rain = 0
KDO1 051031Z 10003KT 22/19 A2999 RMK A01 T02170188  RH  083%=      5-min Rain = 0
KDO1 051032Z 10002KT 22/19 A2999 RMK A01 T02170188  RH  084%=      5-min Rain = 0
KDO1 051033Z 09003KT 22/19 A2999 RMK A01 T02170188  RH  084%=      5-min Rain = 0
KDO1 051034Z 09003KT 22/19 A2999 RMK A01 T02170188  RH  084%=      5-min Rain = 0
KDO1 051035Z 08002KT 22/19 A2999 RMK A01 T02170187  RH  083%=      5-min Rain = 0
KDO1 051036Z 07003KT 22/19 A2999 RMK A01 T02170188  RH  083%=      5-min Rain = 0
KDO1 051037Z 06003KT 22/19 A2999 RMK A01 T02170188  RH  084%=      5-min Rain = 0
KDO1 051038Z 06002KT 22/19 A2999 RMK A01 T02160187  RH  084%=      5-min Rain = 0
KDO1 051039Z 06001KT 22/19 A2999 RMK A01 T02160187  RH  084%=      5-min Rain = 0
KDO1 051040Z 05001KT 22/19 A2999 RMK A01 T02160187  RH  084%=      5-min Rain = 0
KDO1 051041Z 05002KT 22/19 A2999 RMK A01 T02160187  RH  084%=      5-min Rain = 0
KDO1 051042Z 05002KT 22/19 A2999 RMK A01 T02160187  RH  084%=      5-min Rain = 0
KDO1 051043Z 06003KT 22/19 A2999 RMK A01 T02150187  RH  084%=      5-min Rain = 0
KDO1 051044Z 09002KT 22/19 A2999 RMK A01 T02150187  RH  084%=      5-min Rain = 0
KDO1 051045Z 12002KT 22/19 A2999 RMK A01 T02150187  RH  084%=      5-min Rain = 0
KDO1 051046Z 13003KT 21/19 A2999 RMK A01 T02140187  RH  084%=      5-min Rain = 0
KDO1 051047Z 13004KT 21/19 A30 RMK A01 T02140186  RH  084%=      5-min Rain = 0
KDO1 051048Z 13004KT 21/19 A30 RMK A01 T02130186  RH  084%=      5-min Rain = 0
KDO1 051049Z 14004KT 21/19 A30 RMK A01 T02130186  RH  085%=      5-min Rain = 0
KDO1 051050Z 14004KT 21/19 A30 RMK A01 T02120186  RH  085%=      5-min Rain = 0
KDO1 051051Z 15003KT 21/19 A30 RMK A01 T02120186  RH  085%=      5-min Rain = 0
KDO1 051052Z 16002KT 21/19 A30 RMK A01 T02120187  RH  085%=      5-min Rain = 0
KDO1 051053Z 16002KT 21/19 A30 RMK A01 T02120186  RH  085%=      5-min Rain = 0
KDO1 051054Z 15002KT 21/19 A30 RMK A01 T02120187  RH  085%=      5-min Rain = 0
KDO1 051055Z 14002KT 21/19 A30 RMK A01 T02120187  RH  085%=      5-min Rain = 0
KDO1 051056Z 13002KT 21/19 A30 RMK A01 T02120187  RH  085%=      5-min Rain = 0
KDO1 051057Z 11003KT 21/19 A30 RMK A01 T02120187  RH  086%=      5-min Rain = 0
KDO1 051058Z 11002KT 21/19 A30 RMK A01 T02120187  RH  086%=      5-min Rain = 0
KDO1 051059Z 08002KT 21/19 A30 RMK A01 T02110187  RH  086%=      5-min Rain = 0
KDO1 051100Z 08002KT 21/19 A30 RMK A01 T02110187  RH  086%=      5-min Rain = 0
KDO1 051101Z 07003KT 21/19 A30 RMK A01 T02110188  RH  087%=      5-min Rain = 0
KDO1 051102Z 06004KT 21/19 A30 RMK A01 T02110188  RH  087%=      5-min Rain = 0
KDO1 051103Z 08004KT 21/19 A30 RMK A01 T02100188  RH  087%=      5-min Rain = 0
KDO1 051104Z 08005KT 21/19 A30 RMK A01 T02110188  RH  087%=      5-min Rain = 0
KDO1 051105Z 08005KT 21/19 A30 RMK A01 T02110188  RH  087%=      5-min Rain = 0
KDO1 051106Z 08003KT 21/19 A30 RMK A01 T02120189  RH  087%=      5-min Rain = 0
KDO1 051107Z 08003KT 21/19 A30 RMK A01 T02110188  RH  087%=      5-min Rain = 0
KDO1 051108Z 09004KT 21/19 A30 RMK A01 T02110189  RH  087%=      5-min Rain = 0
KDO1 051109Z 08004KT 21/19 A30 RMK A01 T02110189  RH  087%=      5-min Rain = 0
KDO1 051110Z 07003KT 21/19 A30 RMK A01 T02110189  RH  087%=      5-min Rain = 0
KDO1 051111Z 07002KT 21/19 A2999 RMK A01 T02110190  RH  087%=      5-min Rain = 0
KDO1 051112Z 04002KT 21/19 A2999 RMK A01 T02110190  RH  087%=      5-min Rain = 0
KDO1 051113Z 00002KT 21/19 A2999 RMK A01 T02110189  RH  087%=      5-min Rain = 0
KDO1 051114Z 35003KT 21/19 A2999 RMK A01 T02110190  RH  088%=      5-min Rain = 0
KDO1 051115Z 36004KT 21/19 A2999 RMK A01 T02110190  RH  088%=      5-min Rain = 0
KDO1 051116Z 02004KT 21/19 A2999 RMK A01 T02110191  RH  088%=      5-min Rain = 0
KDO1 051117Z 05004KT 21/19 A2999 RMK A01 T02120190  RH  088%=      5-min Rain = 0
KDO1 051118Z 05005KT 21/19 A2999 RMK A01 T02120191  RH  088%=      5-min Rain = 0
KDO1 051119Z 05004KT 21/19 A2999 RMK A01 T02120191  RH  088%=      5-min Rain = 0
KDO1 051120Z 05004KT 21/19 A2999 RMK A01 T02120191  RH  088%=      5-min Rain = 0
KDO1 051121Z 06003KT 21/19 A2999 RMK A01 T02120191  RH  088%=      5-min Rain = 0
KDO1 051122Z 04004KT 21/19 A2999 RMK A01 T02120192  RH  088%=      5-min Rain = 0
KDO1 051123Z 05004KT 21/19 A2999 RMK A01 T02120192  RH  088%=      5-min Rain = 0
KDO1 051124Z 05005KT 21/19 A30 RMK A01 T02120192  RH  088%=      5-min Rain = 0
KDO1 051125Z 05005KT 21/19 A30 RMK A01 T02120193  RH  089%=      5-min Rain = 0
KDO1 051126Z 05004KT 21/19 A30 RMK A01 T02120194  RH  089%=      5-min Rain = 0
KDO1 051127Z 04004KT 21/20 A30 RMK A01 T02120195  RH  090%=      5-min Rain = 0
KDO1 051128Z 04004KT 21/20 A30 RMK A01 T02120196  RH  090%=      5-min Rain = 0
KDO1 051129Z 05004KT 21/20 A30 RMK A01 T02120197  RH  091%=      5-min Rain = 0
KDO1 051130Z 05004KT 21/20 A30 RMK A01 T02120197  RH  091%=      5-min Rain = 0
KDO1 051131Z 05004KT 21/20 A30 RMK A01 T02120198  RH  092%=      5-min Rain = 0
KDO1 051132Z 05004KT 21/20 A30 RMK A01 T02110198  RH  092%=      5-min Rain = 0
KDO1 051133Z 06004KT 21/20 A30 RMK A01 T02110198  RH  092%=      5-min Rain = 0
KDO1 051134Z 07005KT 21/20 A30 RMK A01 T02110198  RH  092%=      5-min Rain = 0
KDO1 051135Z 07006KT 21/20 A30 RMK A01 T02110200  RH  093%=      5-min Rain = 0
KDO1 051136Z 06005KT 21/20 A30 RMK A01 T02110201  RH  094%=      5-min Rain = 0
KDO1 051137Z 06005KT 21/20 A30 RMK A01 T02110201  RH  094%=      5-min Rain = 0
KDO1 051138Z 06005KT 21/20 A30 RMK A01 T02110202  RH  095%=      5-min Rain = 0
KDO1 051139Z 06005KT 21/20 A30 RMK A01 T02110202  RH  095%=      5-min Rain = 0
KDO1 051140Z 07004KT 21/20 A30 RMK A01 T02110203  RH  095%=      5-min Rain = 0
KDO1 051141Z 07004KT 21/20 A30 RMK A01 T02110203  RH  095%=      5-min Rain = 0
KDO1 051142Z 07004KT 21/20 A30 RMK A01 T02110203  RH  095%=      5-min Rain = 0
KDO1 051143Z 07005KT 21/20 A30 RMK A01 T02110203  RH  095%=      5-min Rain = 0
KDO1 051144Z 08006KT 21/20 A30 RMK A01 T02110203  RH  095%=      5-min Rain = 0
KDO1 051145Z 08005KT 21/20 A30 RMK A01 T02110203  RH  095%=      5-min Rain = 0
KDO1 051146Z 08006KT 21/20 A30 RMK A01 T02110203  RH  095%=      5-min Rain = 0
KDO1 051147Z 08005KT 21/20 A30 RMK A01 T02110204  RH  095%=      5-min Rain = 0
KDO1 051148Z 09005KT 21/20 A3001 RMK A01 T02110203  RH  095%=      5-min Rain = 0
KDO1 051149Z 09004KT 21/20 A3001 RMK A01 T02110203  RH  095%=      5-min Rain = 0
KDO1 051150Z 10003KT 21/20 A3001 RMK A01 T02110203  RH  095%=      5-min Rain = 0
KDO1 051151Z 10003KT 21/20 A3001 RMK A01 T02110203  RH  095%=      5-min Rain = 0
KDO1 051152Z 10002KT 21/20 A3002 RMK A01 T02110203  RH  095%=      5-min Rain = 0
KDO1 051153Z 10003KT 21/20 A3002 RMK A01 T02110203  RH  095%=      5-min Rain = 0
KDO1 051154Z 11003KT 21/20 A3002 RMK A01 T02110203  RH  095%=      5-min Rain = 0
KDO1 051155Z 11004KT 21/20 A3002 RMK A01 T02110203  RH  095%=      5-min Rain = 0
KDO1 051156Z 10004KT 21/20 A3001 RMK A01 T02110203  RH  095%=      5-min Rain = 0
KDO1 051157Z 09003KT 21/20 A3001 RMK A01 T02110203  RH  095%=      5-min Rain = 0
KDO1 051158Z 09003KT 21/20 A3001 RMK A01 T02110204  RH  095%=      5-min Rain = 0
KDO1 051159Z 09002KT 21/20 A3001 RMK A01 T02110204  RH  095%=      5-min Rain = 0
KDO1 051200Z 08003KT 21/20 A3001 RMK A01 T02110203  RH  095%=      5-min Rain = 0
KDO1 051201Z 08003KT 21/20 A3002 RMK A01 T02120203  RH  095%=      5-min Rain = 0
KDO1 051202Z 06002KT 21/20 A3002 RMK A01 T02120203  RH  095%=      5-min Rain = 0
KDO1 051203Z 03001KT 21/20 A3002 RMK A01 T02120203  RH  095%=      5-min Rain = 0
KDO1 051204Z 03002KT 21/20 A3002 RMK A01 T02120203  RH  095%=      5-min Rain = 0
KDO1 051205Z 02002KT 21/20 A3002 RMK A01 T02120204  RH  095%=      5-min Rain = 0
KDO1 051206Z 02003KT 21/20 A3001 RMK A01 T02130204  RH  095%=      5-min Rain = 0
KDO1 051207Z 02004KT 21/20 A3001 RMK A01 T02130203  RH  094%=      5-min Rain = 0
KDO1 051208Z 01004KT 21/20 A3001 RMK A01 T02130203  RH  094%=      5-min Rain = 0
KDO1 051209Z 02004KT 21/20 A3001 RMK A01 T02130203  RH  094%=      5-min Rain = 0
KDO1 051210Z 03004KT 21/20 A3001 RMK A01 T02140203  RH  094%=      5-min Rain = 0
KDO1 051211Z 03005KT 21/20 A3001 RMK A01 T02140203  RH  094%=      5-min Rain = 0
KDO1 051212Z 03004KT 22/20 A3002 RMK A01 T02150204  RH  093%=      5-min Rain = 0
KDO1 051213Z 03004KT 22/20 A3002 RMK A01 T02150204  RH  093%=      5-min Rain = 0
KDO1 051214Z 05004KT 22/20 A3002 RMK A01 T02150204  RH  093%=      5-min Rain = 0
KDO1 051215Z 04003KT 22/20 A3002 RMK A01 T02160204  RH  093%=      5-min Rain = 0
KDO1 051216Z 04002KT 22/20 A3002 RMK A01 T02160204  RH  093%=      5-min Rain = 0
KDO1 051217Z 07004KT 22/20 A3002 RMK A01 T02170204  RH  093%=      5-min Rain = 0
KDO1 051218Z 06005KT 22/20 A3002 RMK A01 T02180204  RH  092%=      5-min Rain = 0
KDO1 051219Z 06005KT 22/20 A3002 RMK A01 T02180203  RH  092%=      5-min Rain = 0
KDO1 051220Z 06003KT 22/20 A3002 RMK A01 T02170202  RH  091%=      5-min Rain = 0
KDO1 051221Z 07005KT 22/20 A3002 RMK A01 T02170202  RH  091%=      5-min Rain = 0
KDO1 051222Z 08004KT 22/20 A3002 RMK A01 T02180203  RH  091%=      5-min Rain = 0
KDO1 051223Z 08004KT 22/20 A3002 RMK A01 T02170202  RH  091%=      5-min Rain = 0
KDO1 051224Z 09003KT 22/20 A3002 RMK A01 T02170202  RH  091%=      5-min Rain = 0
KDO1 051225Z 10004KT 22/20 A3002 RMK A01 T02170202  RH  091%=      5-min Rain = 0
KDO1 051226Z 11004KT 22/20 A3002 RMK A01 T02170202  RH  091%=      5-min Rain = 0
KDO1 051227Z 10004KT 22/20 A3003 RMK A01 T02170202  RH  091%=      5-min Rain = 0
KDO1 051228Z 10003KT 22/20 A3003 RMK A01 T02170202  RH  091%=      5-min Rain = 0
KDO1 051229Z 11004KT 22/20 A3003 RMK A01 T02170201  RH  091%=      5-min Rain = 0
KDO1 051230Z 10004KT 22/20 A3003 RMK A01 T02170201  RH  090%=      5-min Rain = 0
KDO1 051231Z 11004KT 22/20 A3003 RMK A01 T02170201  RH  090%=      5-min Rain = 0
KDO1 051232Z 10004KT 22/20 A3003 RMK A01 T02170201  RH  090%=      5-min Rain = 0
KDO1 051233Z 10004KT 22/20 A3003 RMK A01 T02170200  RH  090%=      5-min Rain = 0
KDO1 051234Z 10003KT 22/20 A3003 RMK A01 T02170200  RH  090%=      5-min Rain = 0
KDO1 051235Z 10003KT 22/20 A3003 RMK A01 T02170201  RH  090%=      5-min Rain = 0
KDO1 051236Z 11003KT 22/20 A3003 RMK A01 T02180201  RH  090%=      5-min Rain = 0
KDO1 051237Z 10002KT 22/20 A3003 RMK A01 T02170201  RH  090%=      5-min Rain = 0
KDO1 051238Z 11003KT 22/20 A3003 RMK A01 T02170202  RH  091%=      5-min Rain = 0
KDO1 051239Z 10003KT 22/20 A3003 RMK A01 T02180201  RH  090%=      5-min Rain = 0
KDO1 051240Z 10004KT 22/20 A3003 RMK A01 T02180201  RH  090%=      5-min Rain = 0
KDO1 051241Z 11003KT 22/20 A3003 RMK A01 T02180201  RH  090%=      5-min Rain = 0
KDO1 051242Z 11004KT 22/20 A3003 RMK A01 T02180201  RH  090%=      5-min Rain = 0
KDO1 051243Z 12004KT 22/20 A3003 RMK A01 T02180201  RH  090%=      5-min Rain = 0
KDO1 051244Z 12003KT 22/20 A3003 RMK A01 T02180201  RH  090%=      5-min Rain = 0
KDO1 051245Z 12003KT 22/20 A3003 RMK A01 T02190201  RH  090%=      5-min Rain = 0
KDO1 051246Z 12003KT 22/20 A3003 RMK A01 T02190201  RH  090%=      5-min Rain = 0
KDO1 051247Z 11004KT 22/20 A3003 RMK A01 T02200201  RH  089%=      5-min Rain = 0
KDO1 051248Z 11004KT 22/20 A3003 RMK A01 T02200200  RH  088%=      5-min Rain = 0
KDO1 051249Z 11004KT 22/20 A3003 RMK A01 T02210201  RH  088%=      5-min Rain = 0
KDO1 051250Z 11004KT 22/20 A3003 RMK A01 T02220201  RH  087%=      5-min Rain = 0
KDO1 051251Z 11003KT 22/20 A3003 RMK A01 T02230201  RH  087%=      5-min Rain = 0
KDO1 051252Z 11004KT 22/20 A3003 RMK A01 T02230201  RH  087%=      5-min Rain = 0
KDO1 051253Z 12003KT 22/20 A3003 RMK A01 T02230200  RH  087%=      5-min Rain = 0
KDO1 051254Z 11003KT 22/20 A3003 RMK A01 T02230201  RH  087%=      5-min Rain = 0
KDO1 051255Z 11004KT 22/20 A3003 RMK A01 T02230201  RH  087%=      5-min Rain = 0
KDO1 051256Z 11004KT 22/20 A3003 RMK A01 T02220200  RH  087%=      5-min Rain = 0
KDO1 051257Z 11004KT 22/20 A3003 RMK A01 T02220201  RH  088%=      5-min Rain = 0
KDO1 051258Z 11003KT 22/20 A3003 RMK A01 T02210201  RH  088%=      5-min Rain = 0
KDO1 051259Z 10005KT 22/20 A3003 RMK A01 T02210201  RH  088%=      5-min Rain = 0
KDO1 051300Z 10005KT 22/20 A3003 RMK A01 T02210201  RH  088%=      5-min Rain = 0
KDO1 051301Z 11004KT 22/20 A3003 RMK A01 T02210200  RH  088%=      5-min Rain = 0
KDO1 051302Z 11004KT 22/20 A3003 RMK A01 T02210200  RH  088%=      5-min Rain = 0
KDO1 051303Z 11004KT 22/20 A3003 RMK A01 T02210200  RH  088%=      5-min Rain = 0
KDO1 051304Z 11004KT 22/20 A3003 RMK A01 T02210200  RH  088%=      5-min Rain = 0
KDO1 051305Z 12005KT 22/20 A3003 RMK A01 T02210200  RH  088%=      5-min Rain = 0
KDO1 051306Z 12004KT 22/20 A3003 RMK A01 T02210200  RH  088%=      5-min Rain = 0
KDO1 051307Z 13003KT 22/20 A3003 RMK A01 T02210200  RH  088%=      5-min Rain = 0
KDO1 051308Z 14002KT 22/20 A3003 RMK A01 T02210201  RH  088%=      5-min Rain = 0
KDO1 051309Z 14003KT 22/20 A3003 RMK A01 T02220201  RH  088%=      5-min Rain = 0
KDO1 051310Z 14003KT 22/20 A3003 RMK A01 T02220202  RH  088%=      5-min Rain = 0
KDO1 051311Z 13003KT 22/20 A3003 RMK A01 T02220202  RH  088%=      5-min Rain = 0
KDO1 051312Z 13003KT 22/20 A3003 RMK A01 T02220202  RH  088%=      5-min Rain = 0
KDO1 051313Z 13003KT 22/20 A3004 RMK A01 T02220202  RH  088%=      5-min Rain = 0
KDO1 051314Z 12003KT 22/20 A3004 RMK A01 T02220203  RH  089%=      5-min Rain = 0
KDO1 051315Z 12002KT 22/20 A3004 RMK A01 T02220203  RH  089%=      5-min Rain = 0
KDO1 051316Z 12003KT 22/20 A3004 RMK A01 T02220203  RH  089%=      5-min Rain = 0
KDO1 051317Z 08003KT 22/20 A3004 RMK A01 T02210202  RH  089%=      5-min Rain = 0
KDO1 051318Z 08002KT 22/20 A3004 RMK A01 T02220202  RH  088%=      5-min Rain = 0
KDO1 051319Z 10001KT 22/20 A3004 RMK A01 T02220202  RH  088%=      5-min Rain = 0
KDO1 051320Z 09002KT 22/20 A3004 RMK A01 T02220201  RH  088%=      5-min Rain = 0
KDO1 051321Z 08003KT 22/20 A3004 RMK A01 T02220200  RH  087%=      5-min Rain = 0
KDO1 051322Z 10002KT 22/20 A3004 RMK A01 T02230201  RH  087%=      5-min Rain = 0
KDO1 051323Z 12003KT 22/20 A3004 RMK A01 T02220201  RH  087%=      5-min Rain = 0
KDO1 051324Z 11003KT 22/20 A3004 RMK A01 T02230200  RH  087%=      5-min Rain = 0
KDO1 051325Z 12003KT 22/20 A3004 RMK A01 T02230200  RH  087%=      5-min Rain = 0
KDO1 051326Z 11003KT 22/20 A3004 RMK A01 T02230200  RH  086%=      5-min Rain = 0
KDO1 051327Z 11003KT 22/20 A3004 RMK A01 T02240200  RH  086%=      5-min Rain = 0
KDO1 051328Z 10002KT 22/20 A3004 RMK A01 T02240200  RH  086%=      5-min Rain = 0
KDO1 051329Z 11003KT 23/20 A3004 RMK A01 T02250200  RH  086%=      5-min Rain = 0
KDO1 051330Z 12003KT 23/20 A3004 RMK A01 T02250199  RH  085%=      5-min Rain = 0
KDO1 051331Z 14002KT 23/20 A3004 RMK A01 T02250200  RH  085%=      5-min Rain = 0
KDO1 051332Z 14002KT 23/20 A3004 RMK A01 T02250200  RH  086%=      5-min Rain = 0
KDO1 051333Z 15001KT 23/20 A3004 RMK A01 T02250199  RH  085%=      5-min Rain = 0
KDO1 051334Z 15001KT 23/20 A3004 RMK A01 T02250200  RH  086%=      5-min Rain = 0
KDO1 051335Z 15001KT 23/20 A3004 RMK A01 T02250200  RH  086%=      5-min Rain = 0
KDO1 051336Z 15000KT 23/20 A3004 RMK A01 T02250199  RH  085%=      5-min Rain = 0
KDO1 051337Z 14000KT 22/20 A3004 RMK A01 T02240198  RH  085%=      5-min Rain = 0
KDO1 051338Z 11001KT 22/20 A3004 RMK A01 T02240198  RH  085%=      5-min Rain = 0
KDO1 051339Z 10001KT 23/20 A3004 RMK A01 T02250199  RH  085%=      5-min Rain = 0
KDO1 051340Z 08000KT 23/20 A3004 RMK A01 T02250198  RH  085%=      5-min Rain = 0
KDO1 051341Z 11001KT 23/20 A3004 RMK A01 T02260199  RH  085%=      5-min Rain = 0
KDO1 051342Z 11001KT 23/20 A3004 RMK A01 T02270198  RH  084%=      5-min Rain = 0
KDO1 051343Z 12001KT 23/20 A3004 RMK A01 T02270198  RH  084%=      5-min Rain = 0
KDO1 051344Z 15000KT 23/20 A3004 RMK A01 T02270198  RH  083%=      5-min Rain = 0
KDO1 051345Z 00000KT 23/20 A3004 RMK A01 T02280199  RH  084%=      5-min Rain = 0
KDO1 051346Z 00000KT 23/20 A3004 RMK A01 T02290198  RH  083%=      5-min Rain = 0
KDO1 051347Z 00000KT 23/20 A3004 RMK A01 T02290198  RH  083%=      5-min Rain = 0
KDO1 051348Z 11000KT 23/20 A3004 RMK A01 T02290198  RH  083%=      5-min Rain = 0
KDO1 051349Z 02000KT 23/20 A3004 RMK A01 T02300197  RH  082%=      5-min Rain = 0
KDO1 051350Z 07000KT 23/20 A3004 RMK A01 T02300197  RH  082%=      5-min Rain = 0
KDO1 051351Z 08001KT 23/20 A3004 RMK A01 T02300198  RH  082%=      5-min Rain = 0
KDO1 051352Z 05001KT 23/20 A3004 RMK A01 T02300198  RH  082%=      5-min Rain = 0
KDO1 051353Z 03002KT 23/20 A3003 RMK A01 T02310197  RH  081%=      5-min Rain = 0
KDO1 051354Z 01002KT 23/20 A3003 RMK A01 T02310197  RH  081%=      5-min Rain = 0
KDO1 051355Z 03000KT 23/20 A3004 RMK A01 T02310197  RH  081%=      5-min Rain = 0
KDO1 051356Z 04000KT 23/20 A3004 RMK A01 T02310199  RH  082%=      5-min Rain = 0
KDO1 051357Z 00001KT 23/20 A3004 RMK A01 T02320199  RH  081%=      5-min Rain = 0
KDO1 051358Z 02001KT 23/20 A3004 RMK A01 T02330199  RH  081%=      5-min Rain = 0
KDO1 051359Z 35001KT 23/20 A3004 RMK A01 T02330200  RH  081%=      5-min Rain = 0
KDO1 051400Z 35002KT 23/20 A3004 RMK A01 T02340199  RH  081%=      5-min Rain = 0
KDO1 051401Z 02002KT 23/20 A3004 RMK A01 T02330197  RH  080%=      5-min Rain = 0
KDO1 051402Z 00002KT 23/20 A3004 RMK A01 T02320197  RH  081%=      5-min Rain = 0
KDO1 051403Z 00001KT 23/20 A3004 RMK A01 T02320198  RH  081%=      5-min Rain = 0
KDO1 051404Z 02001KT 23/20 A3004 RMK A01 T02330199  RH  081%=      5-min Rain = 0
KDO1 051405Z 01003KT 24/20 A3004 RMK A01 T02350197  RH  079%=      5-min Rain = 0
KDO1 051406Z 01002KT 24/20 A3004 RMK A01 T02360195  RH  078%=      5-min Rain = 0
KDO1 051407Z 02002KT 24/20 A3004 RMK A01 T02360196  RH  079%=      5-min Rain = 0
KDO1 051408Z 02002KT 24/20 A3004 RMK A01 T02360196  RH  078%=      5-min Rain = 0
KDO1 051409Z 34003KT 24/20 A3004 RMK A01 T02370197  RH  078%=      5-min Rain = 0
KDO1 051410Z 00003KT 24/20 A3004 RMK A01 T02380197  RH  078%=      5-min Rain = 0
KDO1 051411Z 34003KT 24/20 A3004 RMK A01 T02400197  RH  077%=      5-min Rain = 0
KDO1 051412Z 35004KT 24/20 A3004 RMK A01 T02400198  RH  077%=      5-min Rain = 0
KDO1 051413Z 34003KT 24/20 A3004 RMK A01 T02390197  RH  077%=      5-min Rain = 0
KDO1 051414Z 32002KT 24/20 A3004 RMK A01 T02390199  RH  078%=      5-min Rain = 0
KDO1 051415Z 34002KT 24/20 A3004 RMK A01 T02390199  RH  078%=      5-min Rain = 0
KDO1 051416Z 36004KT 24/20 A3004 RMK A01 T02390199  RH  078%=      5-min Rain = 0
KDO1 051417Z 35005KT 24/20 A3004 RMK A01 T02400196  RH  077%=      5-min Rain = 0
KDO1 051418Z 35003KT 24/20 A3004 RMK A01 T02400195  RH  076%=      5-min Rain = 0
KDO1 051419Z 33002KT 24/20 A3004 RMK A01 T02410197  RH  076%=      5-min Rain = 0
KDO1 051420Z 35003KT 24/20 A3004 RMK A01 T02440198  RH  076%=      5-min Rain = 0
KDO1 051421Z 34004KT 25/20 A3004 RMK A01 T02450197  RH  074%=      5-min Rain = 0
KDO1 051422Z 33005KT 25/20 A3004 RMK A01 T02470198  RH  074%=      5-min Rain = 0
KDO1 051423Z 33005KT 25/20 A3004 RMK A01 T02500196  RH  072%=      5-min Rain = 0
KDO1 051424Z 34006KT 25/20 A3004 RMK A01 T02500195  RH  072%=      5-min Rain = 0
KDO1 051425Z 34005KT 25/20 A3004 RMK A01 T02490197  RH  073%=      5-min Rain = 0
KDO1 051426Z 35003KT 25/20 A3004 RMK A01 T02490195  RH  072%=      5-min Rain = 0
KDO1 051427Z 00004KT 25/20 A3003 RMK A01 T02510196  RH  071%=      5-min Rain = 0
KDO1 051428Z 36005KT 25/19 A3003 RMK A01 T02540191  RH  068%=      5-min Rain = 0
KDO1 051429Z 36005KT 25/19 A3003 RMK A01 T02530191  RH  068%=      5-min Rain = 0
KDO1 051430Z 34003KT 25/19 A3003 RMK A01 T02530194  RH  070%=      5-min Rain = 0
KDO1 051431Z 36002KT 26/20 A3003 RMK A01 T02550195  RH  069%=      5-min Rain = 0
KDO1 051432Z 36004KT 26/19 A3003 RMK A01 T02580194  RH  068%=      5-min Rain = 0
KDO1 051433Z 36005KT 26/19 A3003 RMK A01 T02600192  RH  066%=      5-min Rain = 0
KDO1 051434Z 34004KT 26/19 A3003 RMK A01 T02610192  RH  066%=      5-min Rain = 0
KDO1 051435Z 34005KT 26/19 A3003 RMK A01 T02610192  RH  066%=      5-min Rain = 0
KDO1 051436Z 00006KT 26/19 A3003 RMK A01 T02610189  RH  065%=      5-min Rain = 0
KDO1 051437Z 36006KT 26/19 A3003 RMK A01 T02600188  RH  064%=      5-min Rain = 0
KDO1 051438Z 01005KT 26/19 A3003 RMK A01 T02600187  RH  064%=      5-min Rain = 0
KDO1 051439Z 36007KT 26/19 A3003 RMK A01 T02610186  RH  063%=      5-min Rain = 0
KDO1 051440Z 00006KT 26/18 A3003 RMK A01 T02610184  RH  062%=      5-min Rain = 0
KDO1 051441Z 36005KT 26/19 A3003 RMK A01 T02610187  RH  063%=      5-min Rain = 0
KDO1 051442Z 00005KT 26/19 A3003 RMK A01 T02620186  RH  063%=      5-min Rain = 0
KDO1 051443Z 01006KT 26/19 A3003 RMK A01 T02620185  RH  063%=      5-min Rain = 0
KDO1 051444Z 01004KT 26/19 A3003 RMK A01 T02630186  RH  062%=      5-min Rain = 0
KDO1 051445Z 01005KT 27/18 A3003 RMK A01 T02660182  RH  060%=      5-min Rain = 0
KDO1 051446Z 01005KT 27/18 A3003 RMK A01 T02660183  RH  060%=      5-min Rain = 0
KDO1 051447Z 36004KT 27/18 A3003 RMK A01 T02660181  RH  060%=      5-min Rain = 0
KDO1 051448Z 34004KT 27/18 A3003 RMK A01 T02670180  RH  059%=      5-min Rain = 0
KDO1 051449Z 35004KT 27/18 A3003 RMK A01 T02680182  RH  059%=      5-min Rain = 0
KDO1 051450Z 00003KT 27/18 A3003 RMK A01 T02690181  RH  058%=      5-min Rain = 0
KDO1 051451Z 34005KT 27/18 A3003 RMK A01 T02690182  RH  059%=      5-min Rain = 0
KDO1 051452Z 01004KT 27/18 A3003 RMK A01 T02700184  RH  059%=      5-min Rain = 0
KDO1 051453Z 01004KT 27/18 A3003 RMK A01 T02710180  RH  058%=      5-min Rain = 0
KDO1 051454Z 36003KT 27/18 A3003 RMK A01 T02710180  RH  057%=      5-min Rain = 0
KDO1 051455Z 35004KT 27/18 A3003 RMK A01 T02710181  RH  058%=      5-min Rain = 0
KDO1 051456Z 34004KT 27/18 A3003 RMK A01 T02720178  RH  057%=      5-min Rain = 0
KDO1 051457Z 35004KT 27/18 A3003 RMK A01 T02710178  RH  057%=      5-min Rain = 0
KDO1 051458Z 02007KT 27/18 A3003 RMK A01 T02710179  RH  057%=      5-min Rain = 0
KDO1 051459Z 01007KT 27/18 A3003 RMK A01 T02710176  RH  056%=      5-min Rain = 0
KDO1 051500Z 02004KT 27/18 A3003 RMK A01 T02700176  RH  057%=      5-min Rain = 0
KDO1 051501Z 02004KT 27/18 A3003 RMK A01 T02700178  RH  057%=      5-min Rain = 0
KDO1 051502Z 00003KT 27/18 A3003 RMK A01 T02710179  RH  057%=      5-min Rain = 0
KDO1 051503Z 03005KT 27/18 A3003 RMK A01 T02720181  RH  057%=      5-min Rain = 0
KDO1 051504Z 04006KT 27/18 A3003 RMK A01 T02730179  RH  057%=      5-min Rain = 0
KDO1 051505Z 00004KT 27/18 A3003 RMK A01 T02730181  RH  057%=      5-min Rain = 0
KDO1 051506Z 01006KT 27/18 A3003 RMK A01 T02740182  RH  057%=      5-min Rain = 0
KDO1 051507Z 01004KT 27/18 A3003 RMK A01 T02720181  RH  057%=      5-min Rain = 0
KDO1 051508Z 01006KT 27/18 A3003 RMK A01 T02710182  RH  058%=      5-min Rain = 0
KDO1 051509Z 02006KT 27/18 A3003 RMK A01 T02710180  RH  057%=      5-min Rain = 0
KDO1 051510Z 02005KT 27/18 A3003 RMK A01 T02710180  RH  057%=      5-min Rain = 0
KDO1 051511Z 03003KT 27/18 A3003 RMK A01 T02720180  RH  057%=      5-min Rain = 0
KDO1 051512Z 04004KT 27/18 A3003 RMK A01 T02710181  RH  058%=      5-min Rain = 0
KDO1 051513Z 01004KT 27/18 A3003 RMK A01 T02720181  RH  057%=      5-min Rain = 0
KDO1 051514Z 36005KT 27/18 A3003 RMK A01 T02730182  RH  057%=      5-min Rain = 0
KDO1 051515Z 00003KT 27/18 A3003 RMK A01 T02720182  RH  058%=      5-min Rain = 0
KDO1 051516Z 01003KT 27/18 A3003 RMK A01 T02720181  RH  057%=      5-min Rain = 0
KDO1 051517Z 34005KT 27/18 A3003 RMK A01 T02730183  RH  058%=      5-min Rain = 0
KDO1 051518Z 02005KT 27/19 A3003 RMK A01 T02730185  RH  059%=      5-min Rain = 0
KDO1 051519Z 03008KT 28/18 A3003 RMK A01 T02770183  RH  057%=      5-min Rain = 0
KDO1 051520Z 01005KT 28/18 A3003 RMK A01 T02770183  RH  056%=      5-min Rain = 0
KDO1 051521Z 35003KT 28/18 A3003 RMK A01 T02760181  RH  056%=      5-min Rain = 0
KDO1 051522Z 35006KT 27/18 A3002 RMK A01 T02740183  RH  058%=      5-min Rain = 0
KDO1 051523Z 00006KT 27/18 A3002 RMK A01 T02740184  RH  058%=      5-min Rain = 0
KDO1 051524Z 36006KT 27/18 A3002 RMK A01 T02740184  RH  058%=      5-min Rain = 0
KDO1 051525Z 01005KT 28/18 A3002 RMK A01 T02750183  RH  057%=      5-min Rain = 0
KDO1 051526Z 02003KT 28/18 A3002 RMK A01 T02760183  RH  057%=      5-min Rain = 0
KDO1 051527Z 03005KT 28/18 A3002 RMK A01 T02770183  RH  057%=      5-min Rain = 0
KDO1 051528Z 02004KT 28/18 A3002 RMK A01 T02780182  RH  056%=      5-min Rain = 0
KDO1 051529Z 35006KT 28/18 A3002 RMK A01 T02790184  RH  056%=      5-min Rain = 0
KDO1 051530Z 34006KT 28/19 A3002 RMK A01 T02790185  RH  057%=      5-min Rain = 0
KDO1 051531Z 36007G12KT 28/18 A3002 RMK A01 T02780184  RH  057%=      5-min Rain = 0
KDO1 051532Z 35005KT 28/18 A3002 RMK A01 T02790184  RH  056%=      5-min Rain = 0
KDO1 051533Z 01002KT 28/18 A3002 RMK A01 T02780183  RH  056%=      5-min Rain = 0
KDO1 051534Z 01004KT 28/19 A3002 RMK A01 T02800185  RH  056%=      5-min Rain = 0
KDO1 051535Z 33007KT 28/18 A3002 RMK A01 T02830184  RH  055%=      5-min Rain = 0
KDO1 051536Z 34004KT 28/18 A3003 RMK A01 T02830183  RH  055%=      5-min Rain = 0
KDO1 051537Z 35004KT 28/18 A3003 RMK A01 T02810180  RH  054%=      5-min Rain = 0
KDO1 051538Z 35007KT 28/18 A3003 RMK A01 T02790180  RH  055%=      5-min Rain = 0
KDO1 051539Z 36005KT 28/18 A3003 RMK A01 T02780181  RH  055%=      5-min Rain = 0
KDO1 051540Z 01002KT 28/18 A3003 RMK A01 T02770180  RH  056%=      5-min Rain = 0
KDO1 051541Z 34002KT 28/18 A3003 RMK A01 T02760181  RH  056%=      5-min Rain = 0
KDO1 051542Z 36001KT 28/18 A3002 RMK A01 T02790180  RH  055%=      5-min Rain = 0
KDO1 051543Z 34002KT 28/18 A3002 RMK A01 T02810179  RH  054%=      5-min Rain = 0
KDO1 051544Z 00003KT 28/18 A3002 RMK A01 T02830180  RH  054%=      5-min Rain = 0
KDO1 051545Z 36005KT 28/18 A3002 RMK A01 T02830178  RH  053%=      5-min Rain = 0
KDO1 051546Z 35004KT 28/18 A3002 RMK A01 T02820180  RH  054%=      5-min Rain = 0
KDO1 051547Z 34004KT 28/18 A3002 RMK A01 T02820181  RH  054%=      5-min Rain = 0
KDO1 051548Z 35004KT 28/18 A3002 RMK A01 T02840181  RH  054%=      5-min Rain = 0
KDO1 051549Z 36003KT 29/18 A3002 RMK A01 T02850180  RH  053%=      5-min Rain = 0
KDO1 051550Z 33001KT 29/18 A3002 RMK A01 T02860178  RH  052%=      5-min Rain = 0
KDO1 051551Z 28000KT 29/18 A3002 RMK A01 T02860176  RH  051%=      5-min Rain = 0
KDO1 051552Z 01004KT 29/18 A3003 RMK A01 T02860177  RH  051%=      5-min Rain = 0
KDO1 051553Z 04005KT 29/18 A3003 RMK A01 T02880176  RH  051%=      5-min Rain = 0
KDO1 051554Z 06003KT 29/18 A3003 RMK A01 T02860177  RH  051%=      5-min Rain = 0
KDO1 051555Z 07003KT 29/18 A3003 RMK A01 T02860178  RH  052%=      5-min Rain = 0
KDO1 051556Z 09003KT 29/18 A3003 RMK A01 T02880177  RH  051%=      5-min Rain = 0
KDO1 051557Z 09002KT 29/18 A3003 RMK A01 T02890176  RH  051%=      5-min Rain = 0
KDO1 051558Z 13001KT 29/18 A3003 RMK A01 T02900178  RH  051%=      5-min Rain = 0
KDO1 051559Z 01001KT 29/18 A3002 RMK A01 T02930178  RH  050%=      5-min Rain = 0
KDO1 051600Z 35003KT 29/18 A3002 RMK A01 T02940176  RH  049%=      5-min Rain = 0
KDO1 051601Z 01004KT 29/18 A3002 RMK A01 T02940175  RH  049%=      5-min Rain = 0
KDO1 051602Z 03002KT 29/17 A3002 RMK A01 T02930171  RH  048%=      5-min Rain = 0
KDO1 051603Z 03005KT 29/17 A3002 RMK A01 T02910171  RH  048%=      5-min Rain = 0
KDO1 051604Z 04004KT 29/17 A3002 RMK A01 T02910171  RH  048%=      5-min Rain = 0
KDO1 051605Z 06004KT 29/17 A3002 RMK A01 T02910172  RH  049%=      5-min Rain = 0
KDO1 051606Z 07003KT 29/17 A3002 RMK A01 T02900172  RH  049%=      5-min Rain = 0
KDO1 051607Z 03003KT 29/17 A3002 RMK A01 T02910173  RH  049%=      5-min Rain = 0
KDO1 051608Z 00003KT 29/17 A3002 RMK A01 T02920174  RH  049%=      5-min Rain = 0
KDO1 051609Z 36003KT 29/18 A3002 RMK A01 T02920177  RH  050%=      5-min Rain = 0
KDO1 051610Z 32003KT 29/18 A3002 RMK A01 T02920176  RH  050%=      5-min Rain = 0
KDO1 051611Z 36003KT 29/18 A3002 RMK A01 T02910175  RH  050%=      5-min Rain = 0
KDO1 051612Z 35004KT 29/18 A3002 RMK A01 T02890176  RH  051%=      5-min Rain = 0
KDO1 051613Z 35005KT 29/18 A3002 RMK A01 T02890177  RH  051%=      5-min Rain = 0
KDO1 051614Z 32004KT 29/18 A3002 RMK A01 T02900178  RH  051%=      5-min Rain = 0
KDO1 051615Z 33004KT 29/18 A3002 RMK A01 T02920179  RH  051%=      5-min Rain = 0
KDO1 051616Z 31007KT 29/18 A3002 RMK A01 T02930176  RH  049%=      5-min Rain = 0
KDO1 051617Z 30004KT 29/17 A3003 RMK A01 T02920174  RH  049%=      5-min Rain = 0
KDO1 051618Z 30003KT 29/18 A3003 RMK A01 T02900175  RH  050%=      5-min Rain = 0
KDO1 051619Z 27001KT 29/18 A3002 RMK A01 T02900175  RH  050%=      5-min Rain = 0
KDO1 051620Z 26001KT 29/18 A3002 RMK A01 T02900177  RH  051%=      5-min Rain = 0
KDO1 051621Z 24003KT 29/18 A3002 RMK A01 T02910177  RH  050%=      5-min Rain = 0
KDO1 051622Z 21002KT 29/18 A3002 RMK A01 T02920178  RH  050%=      5-min Rain = 0
KDO1 051623Z 34004KT 30/18 A3002 RMK A01 T02950181  RH  050%=      5-min Rain = 0
KDO1 051624Z 35005KT 30/18 A3002 RMK A01 T03000180  RH  049%=      5-min Rain = 0
KDO1 051625Z 33003KT 30/18 A3002 RMK A01 T03000178  RH  048%=      5-min Rain = 0
KDO1 051626Z 29002KT 30/18 A3002 RMK A01 T02970176  RH  048%=      5-min Rain = 0
KDO1 051627Z 32002G7KT 30/18 A3002 RMK A01 T02960176  RH  049%=      5-min Rain = 0
KDO1 051628Z 33006KT 30/18 A3002 RMK A01 T02950175  RH  048%=      5-min Rain = 0
KDO1 051629Z 34004KT 29/18 A3003 RMK A01 T02930176  RH  049%=      5-min Rain = 0
KDO1 051630Z 35003KT 29/17 A3003 RMK A01 T02940173  RH  048%=      5-min Rain = 0
KDO1 051631Z 02002KT 29/17 A3003 RMK A01 T02930173  RH  048%=      5-min Rain = 0
KDO1 051632Z 04003KT 29/17 A3003 RMK A01 T02930173  RH  049%=      5-min Rain = 0
KDO1 051633Z 03004KT 29/17 A3003 RMK A01 T02930174  RH  049%=      5-min Rain = 0
KDO1 051634Z 06003KT 30/17 A3003 RMK A01 T02950173  RH  048%=      5-min Rain = 0
KDO1 051635Z 07001KT 30/17 A3002 RMK A01 T02950173  RH  048%=      5-min Rain = 0
KDO1 051636Z 34001KT 30/17 A3003 RMK A01 T02960173  RH  047%=      5-min Rain = 0
KDO1 051637Z 33001KT 30/17 A3002 RMK A01 T02960174  RH  048%=      5-min Rain = 0
KDO1 051638Z 34005KT 30/18 A3002 RMK A01 T02990180  RH  049%=      5-min Rain = 0
KDO1 051639Z 32007KT 30/18 A3002 RMK A01 T03010183  RH  049%=      5-min Rain = 0
KDO1 051640Z 30005KT 30/18 A3002 RMK A01 T03010183  RH  049%=      5-min Rain = 0
KDO1 051641Z 31006KT 30/18 A3002 RMK A01 T02990182  RH  049%=      5-min Rain = 0
KDO1 051642Z 32008KT 29/18 A3002 RMK A01 T02940181  RH  050%=      5-min Rain = 0
KDO1 051643Z 31008KT 29/18 A3002 RMK A01 T02930182  RH  051%=      5-min Rain = 0
KDO1 051644Z 30008KT 29/18 A3002 RMK A01 T02940181  RH  051%=      5-min Rain = 0
KDO1 051645Z 29009KT 30/18 A3002 RMK A01 T02950180  RH  050%=      5-min Rain = 0
KDO1 051646Z 28006KT 29/18 A3002 RMK A01 T02940181  RH  051%=      5-min Rain = 0
KDO1 051647Z 30006KT 30/18 A3002 RMK A01 T02960182  RH  050%=      5-min Rain = 0
KDO1 051648Z 30007KT 30/18 A3002 RMK A01 T02970181  RH  050%=      5-min Rain = 0
KDO1 051649Z 28006KT 30/18 A3002 RMK A01 T02970181  RH  050%=      5-min Rain = 0
KDO1 051650Z 27005KT 30/18 A3002 RMK A01 T02950181  RH  050%=      5-min Rain = 0
KDO1 051651Z 29006KT 30/18 A3002 RMK A01 T02950181  RH  050%=      5-min Rain = 0
KDO1 051652Z 30005KT 30/18 A3002 RMK A01 T02950180  RH  050%=      5-min Rain = 0
KDO1 051653Z 30005KT 30/18 A3002 RMK A01 T02970183  RH  051%=      5-min Rain = 0
KDO1 051654Z 30004KT 30/18 A3002 RMK A01 T03000182  RH  049%=      5-min Rain = 0
KDO1 051655Z 31006KT 30/18 A3002 RMK A01 T03000182  RH  049%=      5-min Rain = 0
KDO1 051656Z 30007KT 30/18 A3002 RMK A01 T03000181  RH  049%=      5-min Rain = 0
KDO1 051657Z 30009KT 30/18 A3002 RMK A01 T03010183  RH  049%=      5-min Rain = 0
KDO1 051658Z 32009KT 30/18 A3002 RMK A01 T03030183  RH  049%=      5-min Rain = 0
KDO1 051659Z 32009KT 30/18 A3002 RMK A01 T03030181  RH  048%=      5-min Rain = 0
KDO1 051700Z 30007KT 30/18 A3002 RMK A01 T02980180  RH  049%=      5-min Rain = 0
KDO1 051701Z 30006KT 30/18 A3002 RMK A01 T02950181  RH  050%=      5-min Rain = 0
KDO1 051702Z 31005KT 30/18 A3002 RMK A01 T02970180  RH  050%=      5-min Rain = 0
KDO1 051703Z 32007KT 30/18 A3002 RMK A01 T02970179  RH  049%=      5-min Rain = 0
KDO1 051704Z 31005KT 30/18 A3002 RMK A01 T02960180  RH  050%=      5-min Rain = 0
KDO1 051705Z 30006KT 30/18 A3002 RMK A01 T02950180  RH  050%=      5-min Rain = 0
KDO1 051706Z 33008KT 30/18 A3002 RMK A01 T02950181  RH  050%=      5-min Rain = 0
KDO1 051707Z 32008KT 30/18 A3002 RMK A01 T02970180  RH  050%=      5-min Rain = 0
KDO1 051708Z 31007G12KT 30/18 A3002 RMK A01 T02960183  RH  051%=      5-min Rain = 0
KDO1 051709Z 33008KT 30/18 A3002 RMK A01 T02970181  RH  050%=      5-min Rain = 0
KDO1 051710Z 31008KT 30/18 A3002 RMK A01 T02980182  RH  050%=      5-min Rain = 0
KDO1 051711Z 30007KT 30/18 A3002 RMK A01 T02990179  RH  049%=      5-min Rain = 0
KDO1 051712Z 32007KT 30/18 A3002 RMK A01 T02960179  RH  050%=      5-min Rain = 0
KDO1 051713Z 31005KT 29/18 A3002 RMK A01 T02930177  RH  050%=      5-min Rain = 0
KDO1 051714Z 30005KT 29/18 A3002 RMK A01 T02900179  RH  051%=      5-min Rain = 0
KDO1 051715Z 29007KT 29/18 A3002 RMK A01 T02910179  RH  051%=      5-min Rain = 0
KDO1 051716Z 29007KT 29/18 A3002 RMK A01 T02920179  RH  050%=      5-min Rain = 0
KDO1 051717Z 28008KT 29/18 A3002 RMK A01 T02930179  RH  050%=      5-min Rain = 0
KDO1 051718Z 29006KT 29/18 A3002 RMK A01 T02920178  RH  050%=      5-min Rain = 0
KDO1 051719Z 27008KT 29/18 A3002 RMK A01 T02910179  RH  051%=      5-min Rain = 0
KDO1 051720Z 27006KT 29/18 A3002 RMK A01 T02920179  RH  051%=      5-min Rain = 0
KDO1 051721Z 29005KT 29/18 A3002 RMK A01 T02910179  RH  051%=      5-min Rain = 0
KDO1 051722Z 32005KT 29/18 A3001 RMK A01 T02920181  RH  051%=      5-min Rain = 0
KDO1 051723Z 32007KT 30/18 A3001 RMK A01 T02950181  RH  050%=      5-min Rain = 0
KDO1 051724Z 32009KT 30/18 A3001 RMK A01 T02970181  RH  050%=      5-min Rain = 0
KDO1 051725Z 34005KT 30/18 A3001 RMK A01 T02960178  RH  049%=      5-min Rain = 0
KDO1 051726Z 33005KT 29/18 A3001 RMK A01 T02940179  RH  050%=      5-min Rain = 0
KDO1 051727Z 29007KT 30/18 A3001 RMK A01 T02950179  RH  050%=      5-min Rain = 0
KDO1 051728Z 29005KT 30/18 A3001 RMK A01 T02960178  RH  049%=      5-min Rain = 0
KDO1 051729Z 29004KT 30/18 A3001 RMK A01 T02960179  RH  050%=      5-min Rain = 0
KDO1 051730Z 27005KT 30/18 A3001 RMK A01 T02960180  RH  050%=      5-min Rain = 0
KDO1 051731Z 27004KT 30/18 A3001 RMK A01 T02990181  RH  049%=      5-min Rain = 0
KDO1 051732Z 28006KT 30/18 A3001 RMK A01 T03010181  RH  049%=      5-min Rain = 0
KDO1 051733Z 30004KT 30/18 A3001 RMK A01 T03030181  RH  048%=      5-min Rain = 0
KDO1 051734Z 32005KT 30/18 A3001 RMK A01 T03040182  RH  048%=      5-min Rain = 0
KDO1 051735Z 33005KT 31/18 A3001 RMK A01 T03050181  RH  048%=      5-min Rain = 0
KDO1 051736Z 01004KT 30/18 A3001 RMK A01 T03020180  RH  048%=      5-min Rain = 0
KDO1 051737Z 35005KT 30/18 A3001 RMK A01 T03010180  RH  048%=      5-min Rain = 0
KDO1 051738Z 32006KT 30/18 A3001 RMK A01 T03020181  RH  049%=      5-min Rain = 0
KDO1 051739Z 34007KT 30/18 A3001 RMK A01 T03020180  RH  048%=      5-min Rain = 0
KDO1 051740Z 00004KT 30/18 A3001 RMK A01 T03010179  RH  048%=      5-min Rain = 0
KDO1 051741Z 30002KT 30/18 A3001 RMK A01 T03000178  RH  048%=      5-min Rain = 0
KDO1 051742Z 33006KT 30/18 A3001 RMK A01 T02990178  RH  048%=      5-min Rain = 0
KDO1 051743Z 32004KT 30/18 A3001 RMK A01 T02990179  RH  049%=      5-min Rain = 0
KDO1 051744Z 31005KT 30/18 A3001 RMK A01 T03010179  RH  048%=      5-min Rain = 0
KDO1 051745Z 33002KT 30/18 A3001 RMK A01 T03020177  RH  047%=      5-min Rain = 0
KDO1 051746Z 31001KT 30/18 A3001 RMK A01 T03000178  RH  048%=      5-min Rain = 0
KDO1 051747Z 29004KT 30/18 A3001 RMK A01 T03020178  RH  048%=      5-min Rain = 0
KDO1 051748Z 31005KT 30/18 A3001 RMK A01 T03040179  RH  047%=      5-min Rain = 0
KDO1 051749Z 31006KT 30/18 A3001 RMK A01 T03040179  RH  047%=      5-min Rain = 0
KDO1 051750Z 31009G15KT 30/18 A3001 RMK A01 T03030179  RH  047%=      5-min Rain = 0
KDO1 051751Z 01011G16KT 30/18 A3001 RMK A01 T03010180  RH  048%=      5-min Rain = 0
KDO1 051752Z 06008KT 30/18 A3001 RMK A01 T03020180  RH  048%=      5-min Rain = 0
KDO1 051753Z 04006KT 30/18 A3001 RMK A01 T03020180  RH  048%=      5-min Rain = 0
KDO1 051754Z 00004KT 30/18 A3001 RMK A01 T03010179  RH  048%=      5-min Rain = 0
KDO1 051755Z 02003KT 30/18 A3001 RMK A01 T02990180  RH  049%=      5-min Rain = 0
KDO1 051756Z 02005KT 30/18 A3001 RMK A01 T02990179  RH  048%=      5-min Rain = 0
KDO1 051757Z 01005KT 30/18 A3001 RMK A01 T02990178  RH  048%=      5-min Rain = 0
KDO1 051758Z 02005KT 30/18 A3001 RMK A01 T02990179  RH  048%=      5-min Rain = 0
KDO1 051759Z 02005KT 30/18 A3001 RMK A01 T02980179  RH  049%=      5-min Rain = 0
KDO1 051800Z 02004KT 30/18 A3001 RMK A01 T02980178  RH  049%=      5-min Rain = 0
KDO1 051801Z 02003KT 30/18 A3001 RMK A01 T02970178  RH  049%=      5-min Rain = 0
KDO1 051802Z 00001KT 30/18 A3001 RMK A01 T02960177  RH  049%=      5-min Rain = 0
KDO1 051803Z 31002KT 30/18 A3001 RMK A01 T02960178  RH  049%=      5-min Rain = 0
KDO1 051804Z 01004KT 30/18 A3001 RMK A01 T02970177  RH  048%=      5-min Rain = 0
KDO1 051805Z 02003KT 30/18 A3001 RMK A01 T02970178  RH  049%=      5-min Rain = 0
KDO1 051806Z 04004KT 30/18 A3001 RMK A01 T02990181  RH  049%=      5-min Rain = 0
KDO1 051807Z 06003KT 30/18 A3001 RMK A01 T03020180  RH  048%=      5-min Rain = 0
KDO1 051808Z 05005KT 30/18 A3001 RMK A01 T03030181  RH  048%=      5-min Rain = 0
KDO1 051809Z 04006KT 30/18 A3001 RMK A01 T03030182  RH  048%=      5-min Rain = 0
KDO1 051810Z 06005KT 30/18 A30 RMK A01 T03030182  RH  048%=      5-min Rain = 0
KDO1 051811Z 06007KT 30/18 A30 RMK A01 T03020183  RH  049%=      5-min Rain = 0
KDO1 051812Z 06008KT 30/18 A30 RMK A01 T03030181  RH  048%=      5-min Rain = 0
KDO1 051813Z 07007KT 30/18 A30 RMK A01 T03030180  RH  048%=      5-min Rain = 0
KDO1 051814Z 07007KT 30/18 A30 RMK A01 T03010182  RH  049%=      5-min Rain = 0
KDO1 051815Z 07008KT 30/18 A30 RMK A01 T03010182  RH  049%=      5-min Rain = 0
KDO1 051816Z 09007KT 30/18 A30 RMK A01 T03030180  RH  048%=      5-min Rain = 0
KDO1 051817Z 06007KT 30/18 A30 RMK A01 T03030180  RH  048%=      5-min Rain = 0
KDO1 051818Z 05006KT 30/18 A30 RMK A01 T03020182  RH  048%=      5-min Rain = 0
KDO1 051819Z 07008KT 30/18 A30 RMK A01 T03020182  RH  049%=      5-min Rain = 0
KDO1 051820Z 06006KT 30/18 A30 RMK A01 T03030182  RH  048%=      5-min Rain = 0
KDO1 051821Z 05002KT 31/18 A30 RMK A01 T03050183  RH  048%=      5-min Rain = 0
KDO1 051822Z 13000KT 31/18 A30 RMK A01 T03080184  RH  048%=      5-min Rain = 0
KDO1 051823Z 07006G13KT 31/19 A30 RMK A01 T03110187  RH  048%=      5-min Rain = 0
KDO1 051824Z 06009KT 31/19 A30 RMK A01 T03130192  RH  049%=      5-min Rain = 0
KDO1 051825Z 06010KT 31/20 A30 RMK A01 T03120195  RH  050%=      5-min Rain = 0
KDO1 051826Z 07011KT 31/19 A30 RMK A01 T03130194  RH  049%=      5-min Rain = 0
KDO1 051827Z 03008KT 31/19 A30 RMK A01 T03140194  RH  049%=      5-min Rain = 0
KDO1 051828Z 04009KT 31/19 A30 RMK A01 T03110193  RH  050%=      5-min Rain = 0
KDO1 051829Z 04008KT 31/19 A30 RMK A01 T03090192  RH  050%=      5-min Rain = 0
KDO1 051830Z 05008KT 31/19 A30 RMK A01 T03070190  RH  050%=      5-min Rain = 0
KDO1 051831Z 07007KT 31/19 A30 RMK A01 T03060188  RH  050%=      5-min Rain = 0
KDO1 051832Z 09006KT 31/19 A30 RMK A01 T03050187  RH  049%=      5-min Rain = 0
KDO1 051833Z 05006KT 31/19 A30 RMK A01 T03050189  RH  050%=      5-min Rain = 0
KDO1 051834Z 03007KT 31/19 A30 RMK A01 T03060187  RH  049%=      5-min Rain = 0
KDO1 051835Z 04005KT 30/19 A30 RMK A01 T03030188  RH  050%=      5-min Rain = 0
KDO1 051836Z 03006KT 30/19 A30 RMK A01 T03020190  RH  051%=      5-min Rain = 0
KDO1 051837Z 01004KT 30/19 A30 RMK A01 T03020190  RH  051%=      5-min Rain = 0
KDO1 051838Z 01005KT 30/19 A30 RMK A01 T03030189  RH  051%=      5-min Rain = 0
KDO1 051839Z 03006KT 31/19 A30 RMK A01 T03050190  RH  050%=      5-min Rain = 0
KDO1 051840Z 05004KT 31/19 A30 RMK A01 T03060189  RH  050%=      5-min Rain = 0
KDO1 051841Z 05007KT 31/19 A30 RMK A01 T03070189  RH  049%=      5-min Rain = 0
KDO1 051842Z 06005KT 31/19 A30 RMK A01 T03070190  RH  050%=      5-min Rain = 0
KDO1 051843Z 05005KT 31/19 A2999 RMK A01 T03090193  RH  050%=      5-min Rain = 0
KDO1 051844Z 03004KT 31/19 A2999 RMK A01 T03130190  RH  048%=      5-min Rain = 0
KDO1 051845Z 07005KT 31/19 A2999 RMK A01 T03140192  RH  048%=      5-min Rain = 0
KDO1 051846Z 06006KT 32/19 A2999 RMK A01 T03150190  RH  047%=      5-min Rain = 0
KDO1 051847Z 07004KT 32/19 A2999 RMK A01 T03160189  RH  047%=      5-min Rain = 0
KDO1 051848Z 08007KT 32/19 A2999 RMK A01 T03180190  RH  047%=      5-min Rain = 0
KDO1 051849Z 05007KT 32/19 A2999 RMK A01 T03190189  RH  046%=      5-min Rain = 0
KDO1 051850Z 07003KT 32/19 A2999 RMK A01 T03160189  RH  047%=      5-min Rain = 0
KDO1 051851Z 10001KT 32/19 A2999 RMK A01 T03150187  RH  047%=      5-min Rain = 0
KDO1 051852Z 07002KT 32/19 A2999 RMK A01 T03150186  RH  046%=      5-min Rain = 0
KDO1 051853Z 07005KT 31/19 A2999 RMK A01 T03130187  RH  047%=      5-min Rain = 0
KDO1 051854Z 05005KT 32/19 A2999 RMK A01 T03150190  RH  047%=      5-min Rain = 0
KDO1 051855Z 04006KT 32/19 A2999 RMK A01 T03190189  RH  046%=      5-min Rain = 0
KDO1 051856Z 04005KT 32/19 A2999 RMK A01 T03190187  RH  046%=      5-min Rain = 0
KDO1 051857Z 06005KT 32/19 A2999 RMK A01 T03160188  RH  047%=      5-min Rain = 0
KDO1 051858Z 05002KT 31/19 A2999 RMK A01 T03140189  RH  047%=      5-min Rain = 0
KDO1 051859Z 30001KT 31/19 A2999 RMK A01 T03130187  RH  047%=      5-min Rain = 0
KDO1 051900Z 08002KT 31/19 A2999 RMK A01 T03120188  RH  048%=      5-min Rain = 0
KDO1 051901Z 08005KT 31/19 A2999 RMK A01 T03140186  RH  047%=      5-min Rain = 0
KDO1 051902Z 09002KT 31/19 A2999 RMK A01 T03130187  RH  047%=      5-min Rain = 0
KDO1 051903Z 05001KT 31/19 A2998 RMK A01 T03140185  RH  046%=      5-min Rain = 0
KDO1 051904Z 03004KT 31/19 A2998 RMK A01 T03130187  RH  047%=      5-min Rain = 0
KDO1 051905Z 03003KT 31/19 A2998 RMK A01 T03130186  RH  047%=      5-min Rain = 0
KDO1 051906Z 02004KT 31/19 A2998 RMK A01 T03120186  RH  047%=      5-min Rain = 0
KDO1 051907Z 03005KT 31/19 A2998 RMK A01 T03110186  RH  047%=      5-min Rain = 0
KDO1 051908Z 00005KT 31/19 A2998 RMK A01 T03110186  RH  047%=      5-min Rain = 0
KDO1 051909Z 36005KT 31/19 A2998 RMK A01 T03120186  RH  047%=      5-min Rain = 0
KDO1 051910Z 35006KT 31/19 A2998 RMK A01 T03130186  RH  047%=      5-min Rain = 0
KDO1 051911Z 36006KT 31/19 A2998 RMK A01 T03130186  RH  047%=      5-min Rain = 0
KDO1 051912Z 35006KT 32/18 A2998 RMK A01 T03150184  RH  046%=      5-min Rain = 0
KDO1 051913Z 35006KT 31/19 A2998 RMK A01 T03140185  RH  046%=      5-min Rain = 0
KDO1 051914Z 34006KT 32/18 A2998 RMK A01 T03150183  RH  046%=      5-min Rain = 0
KDO1 051915Z 35005KT 32/19 A2998 RMK A01 T03150185  RH  046%=      5-min Rain = 0
KDO1 051916Z 33003KT 32/18 A2998 RMK A01 T03150184  RH  046%=      5-min Rain = 0
KDO1 051917Z 33003KT 32/19 A2998 RMK A01 T03150185  RH  046%=      5-min Rain = 0
KDO1 051918Z 35004KT 32/18 A2998 RMK A01 T03150184  RH  046%=      5-min Rain = 0
KDO1 051919Z 03003KT 32/19 A2998 RMK A01 T03150185  RH  046%=      5-min Rain = 0
KDO1 051920Z 03004KT 32/19 A2998 RMK A01 T03180185  RH  045%=      5-min Rain = 0
KDO1 051921Z 35001KT 32/18 A2998 RMK A01 T03180183  RH  045%=      5-min Rain = 0
KDO1 051922Z 35003KT 32/18 A2998 RMK A01 T03170184  RH  045%=      5-min Rain = 0
KDO1 051923Z 34003KT 32/18 A2998 RMK A01 T03170184  RH  045%=      5-min Rain = 0
KDO1 051924Z 34004KT 32/18 A2997 RMK A01 T03170183  RH  045%=      5-min Rain = 0
KDO1 051925Z 35004KT 32/18 A2997 RMK A01 T03150183  RH  045%=      5-min Rain = 0
KDO1 051926Z 36004KT 31/18 A2997 RMK A01 T03140183  RH  046%=      5-min Rain = 0
KDO1 051927Z 06003KT 31/18 A2997 RMK A01 T03140183  RH  046%=      5-min Rain = 0
KDO1 051928Z 09003KT 32/18 A2997 RMK A01 T03150183  RH  046%=      5-min Rain = 0
KDO1 051929Z 10003KT 32/18 A2997 RMK A01 T03150183  RH  046%=      5-min Rain = 0
KDO1 051930Z 10001KT 32/18 A2997 RMK A01 T03150183  RH  045%=      5-min Rain = 0
KDO1 051931Z 06001KT 31/18 A2997 RMK A01 T03120183  RH  046%=      5-min Rain = 0
KDO1 051932Z 04001KT 31/18 A2997 RMK A01 T03120183  RH  046%=      5-min Rain = 0
KDO1 051933Z 07007G12KT 31/19 A2997 RMK A01 T03110185  RH  047%=      5-min Rain = 0
KDO1 051934Z 12005KT 32/19 A2997 RMK A01 T03150186  RH  046%=      5-min Rain = 0
KDO1 051935Z 12004KT 32/19 A2997 RMK A01 T03190185  RH  045%=      5-min Rain = 0
KDO1 051936Z 09004KT 32/19 A2997 RMK A01 T03220187  RH  045%=      5-min Rain = 0
KDO1 051937Z 12006KT 32/19 A2997 RMK A01 T03230188  RH  045%=      5-min Rain = 0
KDO1 051938Z 09006KT 32/19 A2997 RMK A01 T03210187  RH  045%=      5-min Rain = 0
KDO1 051939Z 08007KT 32/19 A2997 RMK A01 T03200187  RH  045%=      5-min Rain = 0
KDO1 051940Z 08010KT 32/19 A2997 RMK A01 T03180187  RH  046%=      5-min Rain = 0
KDO1 051941Z 09009KT 32/18 A2997 RMK A01 T03150184  RH  046%=      5-min Rain = 0
KDO1 051942Z 09007KT 31/18 A2997 RMK A01 T03120183  RH  046%=      5-min Rain = 0
KDO1 051943Z 08005KT 31/18 A2997 RMK A01 T03120184  RH  047%=      5-min Rain = 0
KDO1 051944Z 06005KT 31/18 A2997 RMK A01 T03130184  RH  046%=      5-min Rain = 0
KDO1 051945Z 07006KT 32/19 A2997 RMK A01 T03150186  RH  046%=      5-min Rain = 0
KDO1 051946Z 06008KT 32/19 A2997 RMK A01 T03210188  RH  045%=      5-min Rain = 0
KDO1 051947Z 06009KT 33/19 A2997 RMK A01 T03250187  RH  044%=      5-min Rain = 0
KDO1 051948Z 05004KT 32/18 A2997 RMK A01 T03230184  RH  044%=      5-min Rain = 0
KDO1 051949Z 04002KT 32/19 A2997 RMK A01 T03200186  RH  045%=      5-min Rain = 0
KDO1 051950Z 04003KT 32/19 A2997 RMK A01 T03220185  RH  044%=      5-min Rain = 0
KDO1 051951Z 04006KT 32/19 A2997 RMK A01 T03220185  RH  044%=      5-min Rain = 0
KDO1 051952Z 03006KT 32/19 A2996 RMK A01 T03230185  RH  044%=      5-min Rain = 0
KDO1 051953Z 03007KT 32/18 A2996 RMK A01 T03230183  RH  044%=      5-min Rain = 0
KDO1 051954Z 04007KT 32/18 A2996 RMK A01 T03200184  RH  044%=      5-min Rain = 0
KDO1 051955Z 10004KT 32/18 A2996 RMK A01 T03170183  RH  045%=      5-min Rain = 0
KDO1 051956Z 11004KT 32/18 A2996 RMK A01 T03150183  RH  045%=      5-min Rain = 0
KDO1 051957Z 08005KT 32/18 A2996 RMK A01 T03150183  RH  045%=      5-min Rain = 0
KDO1 051958Z 05005KT 32/18 A2996 RMK A01 T03150183  RH  045%=      5-min Rain = 0
KDO1 051959Z 10007KT 32/18 A2996 RMK A01 T03150184  RH  046%=      5-min Rain = 0
KDO1 052000Z 10009KT 32/19 A2996 RMK A01 T03150187  RH  047%=      5-min Rain = 0
KDO1 052001Z 10007KT 31/19 A2996 RMK A01 T03130187  RH  047%=      5-min Rain = 0
KDO1 052002Z 07007KT 31/19 A2996 RMK A01 T03120188  RH  048%=      5-min Rain = 0
KDO1 052003Z 08009KT 31/19 A2996 RMK A01 T03130187  RH  047%=      5-min Rain = 0
KDO1 052004Z 08007KT 31/19 A2996 RMK A01 T03130188  RH  047%=      5-min Rain = 0
KDO1 052005Z 09006KT 32/19 A2996 RMK A01 T03150191  RH  048%=      5-min Rain = 0
KDO1 052006Z 08008KT 32/19 A2996 RMK A01 T03210192  RH  046%=      5-min Rain = 0
KDO1 052007Z 07004KT 33/19 A2996 RMK A01 T03260189  RH  044%=      5-min Rain = 0
KDO1 052008Z 08003KT 32/19 A2996 RMK A01 T03230188  RH  045%=      5-min Rain = 0
KDO1 052009Z 10005KT 32/19 A2996 RMK A01 T03210189  RH  046%=      5-min Rain = 0
KDO1 052010Z 08002G7KT 32/19 A2996 RMK A01 T03200187  RH  045%=      5-min Rain = 0
KDO1 052011Z 08003KT 32/19 A2995 RMK A01 T03180187  RH  046%=      5-min Rain = 0
KDO1 052012Z 11009KT 32/19 A2995 RMK A01 T03170189  RH  047%=      5-min Rain = 0
KDO1 052013Z 11009KT 32/19 A2995 RMK A01 T03180188  RH  046%=      5-min Rain = 0
KDO1 052014Z 10007KT 32/19 A2995 RMK A01 T03190187  RH  046%=      5-min Rain = 0
KDO1 052015Z 07005KT 32/19 A2995 RMK A01 T03200186  RH  045%=      5-min Rain = 0
KDO1 052016Z 09005KT 32/19 A2995 RMK A01 T03200187  RH  045%=      5-min Rain = 0
KDO1 052017Z 11005KT 32/19 A2995 RMK A01 T03180189  RH  046%=      5-min Rain = 0
KDO1 052018Z 14004KT 32/19 A2995 RMK A01 T03180188  RH  046%=      5-min Rain = 0
KDO1 052019Z 08006KT 32/19 A2995 RMK A01 T03190187  RH  046%=      5-min Rain = 0
KDO1 052020Z 06005KT 32/19 A2995 RMK A01 T03190187  RH  046%=      5-min Rain = 0
KDO1 052021Z 07003KT 32/19 A2995 RMK A01 T03200189  RH  046%=      5-min Rain = 0
KDO1 052022Z 12005KT 32/19 A2995 RMK A01 T03240191  RH  045%=      5-min Rain = 0
KDO1 052023Z 12005KT 33/19 A2995 RMK A01 T03260191  RH  045%=      5-min Rain = 0
KDO1 052024Z 12004KT 33/19 A2995 RMK A01 T03270190  RH  044%=      5-min Rain = 0
KDO1 052025Z 11002KT 33/19 A2995 RMK A01 T03280191  RH  044%=      5-min Rain = 0
KDO1 052026Z 32001KT 33/19 A2995 RMK A01 T03290192  RH  044%=      5-min Rain = 0
KDO1 052027Z 13002KT 33/19 A2995 RMK A01 T03320190  RH  043%=      5-min Rain = 0
KDO1 052028Z 14006KT 33/19 A2995 RMK A01 T03340194  RH  044%=      5-min Rain = 0
KDO1 052029Z 11003KT 34/19 A2995 RMK A01 T03360194  RH  043%=      5-min Rain = 0
KDO1 052030Z 12005KT 34/20 A2995 RMK A01 T03370195  RH  043%=      5-min Rain = 0
KDO1 052031Z 13007KT 34/20 A2995 RMK A01 T03380195  RH  043%=      5-min Rain = 0
KDO1 052032Z 09005KT 34/20 A2995 RMK A01 T03370199  RH  044%=      5-min Rain = 0
KDO1 052033Z 08008KT 34/20 A2995 RMK A01 T03370197  RH  044%=      5-min Rain = 0
KDO1 052034Z 09006KT 33/20 A2995 RMK A01 T03330198  RH  045%=      5-min Rain = 0
KDO1 052035Z 10008KT 33/20 A2995 RMK A01 T03320198  RH  045%=      5-min Rain = 0
KDO1 052036Z 07008KT 33/20 A2995 RMK A01 T03310198  RH  046%=      5-min Rain = 0
KDO1 052037Z 07008KT 33/20 A2995 RMK A01 T03290196  RH  046%=      5-min Rain = 0
KDO1 052038Z 08009KT 33/20 A2995 RMK A01 T03250195  RH  046%=      5-min Rain = 0
KDO1 052039Z 07007KT 32/20 A2995 RMK A01 T03220195  RH  047%=      5-min Rain = 0
KDO1 052040Z 06008KT 32/19 A2995 RMK A01 T03190194  RH  047%=      5-min Rain = 0
KDO1 052041Z 06008KT 32/20 A2995 RMK A01 T03190196  RH  048%=      5-min Rain = 0
KDO1 052042Z 07009KT 32/20 A2995 RMK A01 T03190195  RH  048%=      5-min Rain = 0
KDO1 052043Z 07007KT 32/20 A2995 RMK A01 T03200195  RH  048%=      5-min Rain = 0
KDO1 052044Z 08005KT 32/19 A2995 RMK A01 T03200194  RH  047%=      5-min Rain = 0
KDO1 052045Z 10004KT 32/19 A2995 RMK A01 T03190194  RH  047%=      5-min Rain = 0
KDO1 052046Z 07005KT 32/20 A2995 RMK A01 T03190195  RH  048%=      5-min Rain = 0
KDO1 052047Z 09007KT 32/20 A2995 RMK A01 T03190195  RH  048%=      5-min Rain = 0
KDO1 052048Z 09006KT 32/20 A2995 RMK A01 T03200196  RH  048%=      5-min Rain = 0
KDO1 052049Z 09007KT 32/20 A2995 RMK A01 T03200196  RH  048%=      5-min Rain = 0
KDO1 052050Z 05007KT 32/20 A2995 RMK A01 T03210195  RH  047%=      5-min Rain = 0
KDO1 052051Z 04008KT 32/19 A2995 RMK A01 T03180193  RH  048%=      5-min Rain = 0
KDO1 052052Z 03009KT 32/19 A2995 RMK A01 T03150193  RH  048%=      5-min Rain = 0
KDO1 052053Z 03007KT 31/19 A2995 RMK A01 T03130192  RH  049%=      5-min Rain = 0
KDO1 052054Z 04008KT 31/19 A2995 RMK A01 T03120194  RH  049%=      5-min Rain = 0
KDO1 052055Z 04007KT 31/19 A2994 RMK A01 T03130194  RH  049%=      5-min Rain = 0
KDO1 052056Z 04009KT 32/20 A2994 RMK A01 T03150196  RH  049%=      5-min Rain = 0
KDO1 052057Z 04010KT 32/20 A2994 RMK A01 T03190198  RH  049%=      5-min Rain = 0
KDO1 052058Z 06009KT 32/20 A2994 RMK A01 T03220198  RH  048%=      5-min Rain = 0
KDO1 052059Z 06009KT 32/20 A2994 RMK A01 T03240198  RH  047%=      5-min Rain = 0
KDO1 052100Z 05008KT 32/20 A2994 RMK A01 T03240198  RH  047%=      5-min Rain = 0
KDO1 052101Z 04005KT 32/20 A2994 RMK A01 T03230197  RH  047%=      5-min Rain = 0
KDO1 052102Z 05006KT 32/20 A2994 RMK A01 T03220198  RH  048%=      5-min Rain = 0
KDO1 052103Z 05009KT 33/20 A2994 RMK A01 T03250198  RH  047%=      5-min Rain = 0
KDO1 052104Z 07010KT 33/20 A2994 RMK A01 T03260199  RH  047%=      5-min Rain = 0
KDO1 052105Z 08008KT 33/20 A2994 RMK A01 T03270198  RH  047%=      5-min Rain = 0
KDO1 052106Z 07009KT 33/20 A2994 RMK A01 T03260199  RH  047%=      5-min Rain = 0
KDO1 052107Z 06007KT 33/20 A2994 RMK A01 T03260200  RH  048%=      5-min Rain = 0
KDO1 052108Z 05011KT 33/20 A2994 RMK A01 T03290200  RH  047%=      5-min Rain = 0
KDO1 052109Z 05010KT 33/20 A2994 RMK A01 T03280201  RH  047%=      5-min Rain = 0
KDO1 052110Z 05009KT 33/20 A2994 RMK A01 T03260200  RH  047%=      5-min Rain = 0
KDO1 052111Z 05009KT 32/20 A2994 RMK A01 T03240201  RH  048%=      5-min Rain = 0
KDO1 052112Z 04011KT 32/20 A2994 RMK A01 T03230200  RH  048%=      5-min Rain = 0
KDO1 052113Z 05009G14KT 32/20 A2994 RMK A01 T03200199  RH  049%=      5-min Rain = 0
KDO1 052114Z 04008KT 32/20 A2994 RMK A01 T03180199  RH  049%=      5-min Rain = 0
KDO1 052115Z 05006KT 32/20 A2994 RMK A01 T03200202  RH  050%=      5-min Rain = 0
KDO1 052116Z 05007KT 32/20 A2994 RMK A01 T03230201  RH  049%=      5-min Rain = 0
KDO1 052117Z 05009KT 32/20 A2994 RMK A01 T03220199  RH  049%=      5-min Rain = 0
KDO1 052118Z 04008G13KT 32/20 A2994 RMK A01 T03180200  RH  050%=      5-min Rain = 0
KDO1 052119Z 04011KT 32/20 A2994 RMK A01 T03160198  RH  050%=      5-min Rain = 0
KDO1 052120Z 03008KT 31/20 A2994 RMK A01 T03130197  RH  050%=      5-min Rain = 0
KDO1 052121Z 02007KT 31/20 A2994 RMK A01 T03110197  RH  051%=      5-min Rain = 0
KDO1 052122Z 02008KT 31/20 A2994 RMK A01 T03100197  RH  051%=      5-min Rain = 0
KDO1 052123Z 02007KT 31/20 A2994 RMK A01 T03090198  RH  052%=      5-min Rain = 0
KDO1 052124Z 03007KT 31/20 A2994 RMK A01 T03090198  RH  052%=      5-min Rain = 0
KDO1 052125Z 02008KT 31/20 A2994 RMK A01 T03080198  RH  052%=      5-min Rain = 0
KDO1 052126Z 04010KT 31/20 A2994 RMK A01 T03070197  RH  052%=      5-min Rain = 0
KDO1 052127Z 03009KT 31/20 A2994 RMK A01 T03070197  RH  052%=      5-min Rain = 0
KDO1 052128Z 04008KT 31/20 A2994 RMK A01 T03070197  RH  052%=      5-min Rain = 0
KDO1 052129Z 05009KT 31/20 A2994 RMK A01 T03110199  RH  051%=      5-min Rain = 0
KDO1 052130Z 07008KT 32/20 A2994 RMK A01 T03160201  RH  050%=      5-min Rain = 0
KDO1 052131Z 08011KT 32/20 A2994 RMK A01 T03210202  RH  049%=      5-min Rain = 0
KDO1 052132Z 07010KT 32/20 A2994 RMK A01 T03230200  RH  049%=      5-min Rain = 0
KDO1 052133Z 06012KT 32/20 A2994 RMK A01 T03210201  RH  049%=      5-min Rain = 0
KDO1 052134Z 07011KT 32/20 A2994 RMK A01 T03190200  RH  049%=      5-min Rain = 0
KDO1 052135Z 07010KT 32/20 A2994 RMK A01 T03180200  RH  050%=      5-min Rain = 0
KDO1 052136Z 06009KT 32/20 A2994 RMK A01 T03180199  RH  049%=      5-min Rain = 0
KDO1 052137Z 06010KT 32/20 A2994 RMK A01 T03190201  RH  050%=      5-min Rain = 0
KDO1 052138Z 06010G15KT 32/20 A2994 RMK A01 T03210200  RH  049%=      5-min Rain = 0
KDO1 052139Z 05007KT 32/20 A2994 RMK A01 T03200200  RH  049%=      5-min Rain = 0
KDO1 052140Z 04006KT 32/20 A2994 RMK A01 T03200201  RH  049%=      5-min Rain = 0
KDO1 052141Z 06010KT 32/20 A2994 RMK A01 T03210201  RH  049%=      5-min Rain = 0
KDO1 052142Z 05010KT 32/20 A2994 RMK A01 T03230201  RH  049%=      5-min Rain = 0
KDO1 052143Z 06009KT 32/20 A2994 RMK A01 T03210201  RH  049%=      5-min Rain = 0
KDO1 052144Z 07009KT 32/20 A2994 RMK A01 T03200200  RH  049%=      5-min Rain = 0
KDO1 052145Z 08008KT 32/20 A2994 RMK A01 T03190200  RH  049%=      5-min Rain = 0
KDO1 052146Z 09009KT 32/20 A2994 RMK A01 T03180200  RH  050%=      5-min Rain = 0
KDO1 052147Z 09007KT 32/20 A2994 RMK A01 T03200199  RH  049%=      5-min Rain = 0
KDO1 052148Z 12007KT 32/20 A2994 RMK A01 T03190200  RH  049%=      5-min Rain = 0
KDO1 052149Z 11005KT 32/20 A2994 RMK A01 T03210200  RH  049%=      5-min Rain = 0
KDO1 052150Z 05006KT 32/20 A2994 RMK A01 T03230200  RH  048%=      5-min Rain = 0
KDO1 052151Z 05006KT 32/20 A2994 RMK A01 T03230202  RH  049%=      5-min Rain = 0
KDO1 052152Z 04004KT 32/20 A2994 RMK A01 T03230201  RH  049%=      5-min Rain = 0
KDO1 052153Z 01006KT 32/20 A2994 RMK A01 T03230201  RH  048%=      5-min Rain = 0
KDO1 052154Z 02007KT 32/20 A2994 RMK A01 T03220200  RH  048%=      5-min Rain = 0
KDO1 052155Z 03005G12KT 32/20 A2994 RMK A01 T03200199  RH  049%=      5-min Rain = 0
KDO1 052156Z 02007KT 32/20 A2993 RMK A01 T03180200  RH  050%=      5-min Rain = 0
KDO1 052157Z 02006KT 32/20 A2993 RMK A01 T03180199  RH  049%=      5-min Rain = 0
KDO1 052158Z 01004KT 32/20 A2993 RMK A01 T03170200  RH  050%=      5-min Rain = 0
KDO1 052159Z 03004KT 32/20 A2993 RMK A01 T03170200  RH  050%=      5-min Rain = 0
KDO1 052200Z 01007G12KT 32/20 A2993 RMK A01 T03190200  RH  049%=      5-min Rain = 0
KDO1 052201Z 03008KT 32/20 A2993 RMK A01 T03200200  RH  049%=      5-min Rain = 0
KDO1 052202Z 06009KT 32/20 A2993 RMK A01 T03200201  RH  049%=      5-min Rain = 0
KDO1 052203Z 06010KT 32/20 A2993 RMK A01 T03200199  RH  049%=      5-min Rain = 0
KDO1 052204Z 06007KT 32/20 A2993 RMK A01 T03190199  RH  049%=      5-min Rain = 0
KDO1 052205Z 07006KT 32/20 A2993 RMK A01 T03180199  RH  050%=      5-min Rain = 0
KDO1 052206Z 07007KT 32/20 A2993 RMK A01 T03180200  RH  050%=      5-min Rain = 0
KDO1 052207Z 06004KT 32/20 A2993 RMK A01 T03210200  RH  049%=      5-min Rain = 0
KDO1 052208Z 08003KT 32/20 A2993 RMK A01 T03230202  RH  049%=      5-min Rain = 0
KDO1 052209Z 09004KT 33/20 A2993 RMK A01 T03260200  RH  048%=      5-min Rain = 0
KDO1 052210Z 05009G14KT 33/20 A2993 RMK A01 T03260201  RH  048%=      5-min Rain = 0
KDO1 052211Z 03007KT 33/20 A2993 RMK A01 T03250201  RH  048%=      5-min Rain = 0
KDO1 052212Z 02008KT 32/20 A2993 RMK A01 T03230200  RH  048%=      5-min Rain = 0
KDO1 052213Z 01004KT 32/20 A2993 RMK A01 T03200199  RH  049%=      5-min Rain = 0
KDO1 052214Z 01004KT 32/20 A2993 RMK A01 T03190199  RH  049%=      5-min Rain = 0
KDO1 052215Z 02006KT 32/20 A2993 RMK A01 T03190199  RH  049%=      5-min Rain = 0
KDO1 052216Z 07007KT 32/20 A2993 RMK A01 T03190200  RH  049%=      5-min Rain = 0
KDO1 052217Z 07008KT 32/20 A2993 RMK A01 T03200200  RH  049%=      5-min Rain = 0
KDO1 052218Z 10006KT 32/20 A2993 RMK A01 T03210198  RH  048%=      5-min Rain = 0
KDO1 052219Z 08009KT 32/20 A2993 RMK A01 T03210200  RH  049%=      5-min Rain = 0
KDO1 052220Z 09009KT 32/20 A2993 RMK A01 T03210199  RH  049%=      5-min Rain = 0
KDO1 052221Z 09009KT 32/20 A2993 RMK A01 T03200199  RH  049%=      5-min Rain = 0
KDO1 052222Z 09006KT 32/20 A2993 RMK A01 T03190198  RH  049%=      5-min Rain = 0
KDO1 052223Z 06004KT 32/20 A2993 RMK A01 T03200200  RH  049%=      5-min Rain = 0
KDO1 052224Z 03002KT 32/20 A2992 RMK A01 T03220199  RH  048%=      5-min Rain = 0
KDO1 052225Z 02005KT 32/20 A2992 RMK A01 T03240200  RH  048%=      5-min Rain = 0
KDO1 052226Z 02005KT 33/20 A2992 RMK A01 T03250199  RH  047%=      5-min Rain = 0
KDO1 052227Z 35005KT 32/20 A2992 RMK A01 T03230199  RH  048%=      5-min Rain = 0
KDO1 052228Z 32002KT 32/20 A2992 RMK A01 T03200198  RH  049%=      5-min Rain = 0
KDO1 052229Z 01003KT 32/20 A2992 RMK A01 T03200199  RH  049%=      5-min Rain = 0
KDO1 052230Z 00001KT 32/20 A2992 RMK A01 T03210198  RH  048%=      5-min Rain = 0
KDO1 052231Z 31001KT 32/20 A2992 RMK A01 T03210198  RH  048%=      5-min Rain = 0
KDO1 052232Z 36001KT 32/20 A2992 RMK A01 T03210197  RH  048%=      5-min Rain = 0
KDO1 052233Z 35003KT 32/20 A2992 RMK A01 T03210197  RH  048%=      5-min Rain = 0
KDO1 052234Z 31002KT 32/20 A2992 RMK A01 T03200198  RH  048%=      5-min Rain = 0
KDO1 052235Z 04007KT 32/20 A2992 RMK A01 T03200199  RH  049%=      5-min Rain = 0
KDO1 052236Z 03009KT 32/20 A2992 RMK A01 T03210199  RH  049%=      5-min Rain = 0
KDO1 052237Z 06006KT 32/20 A2992 RMK A01 T03220200  RH  048%=      5-min Rain = 0
KDO1 052238Z 08007KT 32/20 A2992 RMK A01 T03230200  RH  048%=      5-min Rain = 0
KDO1 052239Z 08006KT 32/20 A2992 RMK A01 T03240199  RH  048%=      5-min Rain = 0
KDO1 052240Z 09005KT 32/20 A2991 RMK A01 T03240200  RH  048%=      5-min Rain = 0
KDO1 052241Z 08002KT 32/20 A2991 RMK A01 T03240199  RH  048%=      5-min Rain = 0
KDO1 052242Z 06001KT 32/20 A2991 RMK A01 T03240200  RH  048%=      5-min Rain = 0
KDO1 052243Z 06004KT 32/20 A2991 RMK A01 T03240199  RH  048%=      5-min Rain = 0
KDO1 052244Z 05004KT 32/20 A2991 RMK A01 T03240199  RH  048%=      5-min Rain = 0
KDO1 052245Z 03002KT 32/20 A2991 RMK A01 T03240199  RH  048%=      5-min Rain = 0
KDO1 052246Z 02004KT 32/20 A2991 RMK A01 T03240200  RH  048%=      5-min Rain = 0
KDO1 052247Z 36003KT 33/20 A2991 RMK A01 T03260199  RH  047%=      5-min Rain = 0
KDO1 052248Z 33004KT 33/20 A2991 RMK A01 T03260198  RH  047%=      5-min Rain = 0
KDO1 052249Z 35005KT 32/20 A2991 RMK A01 T03230199  RH  048%=      5-min Rain = 0
KDO1 052250Z 08003KT 32/20 A2991 RMK A01 T03240201  RH  048%=      5-min Rain = 0
KDO1 052251Z 09012KT 33/20 A2991 RMK A01 T03270201  RH  048%=      5-min Rain = 0
KDO1 052252Z 07011KT 33/20 A2991 RMK A01 T03290201  RH  047%=      5-min Rain = 0
KDO1 052253Z 09010KT 33/20 A2991 RMK A01 T03260202  RH  048%=      5-min Rain = 0
KDO1 052254Z 10008KT 33/20 A2991 RMK A01 T03250203  RH  049%=      5-min Rain = 0
KDO1 052255Z 10008KT 33/20 A2991 RMK A01 T03270202  RH  048%=      5-min Rain = 0
KDO1 052256Z 09009KT 33/20 A299 RMK A01 T03280201  RH  047%=      5-min Rain = 0
KDO1 052257Z 06007G13KT 33/20 A299 RMK A01 T03260201  RH  048%=      5-min Rain = 0
KDO1 052258Z 06004KT 32/20 A299 RMK A01 T03240200  RH  048%=      5-min Rain = 0
KDO1 052259Z 05008G13KT 32/20 A299 RMK A01 T03240202  RH  049%=      5-min Rain = 0
KDO1 052300Z 04012KT 33/20 A299 RMK A01 T03250200  RH  048%=      5-min Rain = 0
KDO1 052301Z 05010KT 32/20 A299 RMK A01 T03230200  RH  048%=      5-min Rain = 0
KDO1 052302Z 04009KT 32/20 A299 RMK A01 T03210200  RH  049%=      5-min Rain = 0
KDO1 052303Z 05007KT 32/20 A299 RMK A01 T03200199  RH  049%=      5-min Rain = 0
KDO1 052304Z 05004KT 32/20 A299 RMK A01 T03180200  RH  049%=      5-min Rain = 0
KDO1 052305Z 04005KT 32/20 A299 RMK A01 T03200200  RH  049%=      5-min Rain = 0
KDO1 052306Z 05008KT 32/20 A299 RMK A01 T03220200  RH  049%=      5-min Rain = 0
KDO1 052307Z 07008KT 32/20 A299 RMK A01 T03230201  RH  049%=      5-min Rain = 0
KDO1 052308Z 08006KT 32/20 A299 RMK A01 T03240200  RH  048%=      5-min Rain = 0
KDO1 052309Z 06008KT 32/20 A299 RMK A01 T03240201  RH  048%=      5-min Rain = 0
KDO1 052310Z 07010KT 32/20 A299 RMK A01 T03240201  RH  048%=      5-min Rain = 0
KDO1 052311Z 06010KT 32/20 A299 RMK A01 T03240200  RH  048%=      5-min Rain = 0
KDO1 052312Z 06012KT 32/20 A299 RMK A01 T03240201  RH  048%=      5-min Rain = 0
KDO1 052313Z 06012KT 32/20 A299 RMK A01 T03230200  RH  048%=      5-min Rain = 0
KDO1 052314Z 06011KT 32/20 A299 RMK A01 T03210200  RH  049%=      5-min Rain = 0
KDO1 052315Z 05010KT 32/20 A299 RMK A01 T03200199  RH  049%=      5-min Rain = 0
KDO1 052316Z 05008KT 32/20 A299 RMK A01 T03180200  RH  050%=      5-min Rain = 0
KDO1 052317Z 05007G12KT 32/20 A299 RMK A01 T03180200  RH  050%=      5-min Rain = 0
KDO1 052318Z 05009KT 32/20 A299 RMK A01 T03180200  RH  050%=      5-min Rain = 0
KDO1 052319Z 07008KT 32/20 A299 RMK A01 T03170200  RH  050%=      5-min Rain = 0
KDO1 052320Z 06009KT 32/20 A299 RMK A01 T03150200  RH  050%=      5-min Rain = 0
KDO1 052321Z 06010KT 31/20 A299 RMK A01 T03140199  RH  050%=      5-min Rain = 0
KDO1 052322Z 05009KT 31/20 A2991 RMK A01 T03110198  RH  051%=      5-min Rain = 0
KDO1 052323Z 05006KT 31/20 A2991 RMK A01 T03090198  RH  052%=      5-min Rain = 0
KDO1 052324Z 05007KT 31/20 A2991 RMK A01 T03090198  RH  052%=      5-min Rain = 0
KDO1 052325Z 05006KT 31/20 A2991 RMK A01 T03100198  RH  051%=      5-min Rain = 0
KDO1 052326Z 04007KT 31/20 A2991 RMK A01 T03110198  RH  051%=      5-min Rain = 0
KDO1 052327Z 04006KT 31/20 A2991 RMK A01 T03120198  RH  051%=      5-min Rain = 0
KDO1 052328Z 04005KT 31/20 A2991 RMK A01 T03120198  RH  051%=      5-min Rain = 0
KDO1 052329Z 03005KT 31/20 A2991 RMK A01 T03110198  RH  051%=      5-min Rain = 0
KDO1 052330Z 03007KT 31/20 A2991 RMK A01 T03110199  RH  051%=      5-min Rain = 0
KDO1 052331Z 03004KT 31/20 A2991 RMK A01 T03130199  RH  051%=      5-min Rain = 0
KDO1 052332Z 09006KT 32/20 A2991 RMK A01 T03160200  RH  050%=      5-min Rain = 0
KDO1 052333Z 09009KT 32/20 A2991 RMK A01 T03170200  RH  050%=      5-min Rain = 0
KDO1 052334Z 09007KT 32/20 A2991 RMK A01 T03170200  RH  050%=      5-min Rain = 0
KDO1 052335Z 10006KT 32/20 A299 RMK A01 T03170199  RH  050%=      5-min Rain = 0
KDO1 052336Z 10007KT 32/20 A299 RMK A01 T03180200  RH  049%=      5-min Rain = 0
KDO1 052337Z 07008KT 32/20 A299 RMK A01 T03190200  RH  049%=      5-min Rain = 0
KDO1 052338Z 08008KT 32/20 A299 RMK A01 T03210201  RH  049%=      5-min Rain = 0
KDO1 052339Z 09006KT 32/20 A299 RMK A01 T03220201  RH  049%=      5-min Rain = 0
KDO1 052340Z 06008KT 32/20 A299 RMK A01 T03220201  RH  049%=      5-min Rain = 0
KDO1 052341Z 06008KT 32/20 A299 RMK A01 T03210200  RH  049%=      5-min Rain = 0
KDO1 052342Z 05006KT 32/20 A299 RMK A01 T03180200  RH  050%=      5-min Rain = 0
KDO1 052343Z 08006KT 32/20 A299 RMK A01 T03170200  RH  050%=      5-min Rain = 0
KDO1 052344Z 08005KT 32/20 A299 RMK A01 T03170200  RH  050%=      5-min Rain = 0
KDO1 052345Z 08004KT 32/20 A299 RMK A01 T03180200  RH  050%=      5-min Rain = 0
KDO1 052346Z 09004KT 32/20 A299 RMK A01 T03170201  RH  050%=      5-min Rain = 0
KDO1 052347Z 09007KT 32/20 A2991 RMK A01 T03170202  RH  050%=      5-min Rain = 0
KDO1 052348Z 09008KT 32/20 A2991 RMK A01 T03160200  RH  050%=      5-min Rain = 0
KDO1 052349Z 09006KT 31/20 A2991 RMK A01 T03140199  RH  051%=      5-min Rain = 0
KDO1 052350Z 11007KT 31/20 A2991 RMK A01 T03130199  RH  051%=      5-min Rain = 0
KDO1 052351Z 10009KT 31/20 A2991 RMK A01 T03130199  RH  051%=      5-min Rain = 0
KDO1 052352Z 10009KT 31/20 A2991 RMK A01 T03140199  RH  050%=      5-min Rain = 0
KDO1 052353Z 10008KT 32/20 A2991 RMK A01 T03150199  RH  050%=      5-min Rain = 0
KDO1 052354Z 09005KT 32/20 A2991 RMK A01 T03150199  RH  050%=      5-min Rain = 0
KDO1 052355Z 09005KT 32/20 A2991 RMK A01 T03150200  RH  050%=      5-min Rain = 0
KDO1 052356Z 10005KT 32/20 A2991 RMK A01 T03150199  RH  050%=      5-min Rain = 0
KDO1 052357Z 10005KT 32/20 A2991 RMK A01 T03150200  RH  050%=      5-min Rain = 0
KDO1 052358Z 07007KT 32/20 A2991 RMK A01 T03170201  RH  050%=      5-min Rain = 0
KDO1 052359Z 05008KT 32/20 A2991 RMK A01 T03180199  RH  049%=      5-min Rain = 0
KDO1 060000Z 07006KT 32/20 A2991 RMK A01 T03170200  RH  050%=      5-min Rain = 0
KDO1 060001Z 08008KT 32/20 A2991 RMK A01 T03170200  RH  050%=      5-min Rain = 0
KDO1 060002Z 06008KT 32/20 A2991 RMK A01 T03180200  RH  050%=      5-min Rain = 0
KDO1 060003Z 07009KT 32/20 A2991 RMK A01 T03160200  RH  050%=      5-min Rain = 0
KDO1 060004Z 07009KT 32/20 A2991 RMK A01 T03150200  RH  050%=      5-min Rain = 0
KDO1 060005Z 06008KT 31/20 A2991 RMK A01 T03140200  RH  051%=      5-min Rain = 0
KDO1 060006Z 06008KT 31/20 A2991 RMK A01 T03130200  RH  051%=      5-min Rain = 0
KDO1 060007Z 04006KT 31/20 A2991 RMK A01 T03120199  RH  051%=      5-min Rain = 0
KDO1 060008Z 05006KT 31/20 A2991 RMK A01 T03100199  RH  052%=      5-min Rain = 0
KDO1 060009Z 07008KT 31/20 A2991 RMK A01 T03090199  RH  052%=      5-min Rain = 0
KDO1 060010Z 06008KT 31/20 A2991 RMK A01 T03090199  RH  052%=      5-min Rain = 0
KDO1 060011Z 06008KT 31/20 A2991 RMK A01 T03080198  RH  052%=      5-min Rain = 0
KDO1 060012Z 06007KT 31/20 A2991 RMK A01 T03070198  RH  052%=      5-min Rain = 0
KDO1 060013Z 05006KT 31/20 A2991 RMK A01 T03070198  RH  052%=      5-min Rain = 0
KDO1 060014Z 05006KT 31/20 A2991 RMK A01 T03070199  RH  052%=      5-min Rain = 0
KDO1 060015Z 06005KT 31/20 A2991 RMK A01 T03070199  RH  053%=      5-min Rain = 0
KDO1 060016Z 05004KT 31/20 A2991 RMK A01 T03070199  RH  052%=      5-min Rain = 0
KDO1 060017Z 05006KT 31/20 A2991 RMK A01 T03070198  RH  052%=      5-min Rain = 0
KDO1 060018Z 05006KT 31/20 A2991 RMK A01 T03070198  RH  052%=      5-min Rain = 0
KDO1 060019Z 07004KT 31/20 A2991 RMK A01 T03070199  RH  053%=      5-min Rain = 0
KDO1 060020Z 09005KT 31/20 A2991 RMK A01 T03060199  RH  053%=      5-min Rain = 0
KDO1 060021Z 09007KT 31/20 A2991 RMK A01 T03070198  RH  052%=      5-min Rain = 0
KDO1 060022Z 09005KT 31/20 A2991 RMK A01 T03080198  RH  052%=      5-min Rain = 0
KDO1 060023Z 09006KT 31/20 A2991 RMK A01 T03080198  RH  052%=      5-min Rain = 0
KDO1 060024Z 09005KT 31/20 A2991 RMK A01 T03080198  RH  052%=      5-min Rain = 0
KDO1 060025Z 10005KT 31/20 A2991 RMK A01 T03080198  RH  052%=      5-min Rain = 0
KDO1 060026Z 06007KT 31/20 A2991 RMK A01 T03080199  RH  052%=      5-min Rain = 0
KDO1 060027Z 06008KT 31/20 A2991 RMK A01 T03080198  RH  052%=      5-min Rain = 0
KDO1 060028Z 07006KT 31/20 A2991 RMK A01 T03080198  RH  052%=      5-min Rain = 0
KDO1 060029Z 09005KT 31/20 A2991 RMK A01 T03080199  RH  052%=      5-min Rain = 0
KDO1 060030Z 10006KT 31/20 A2991 RMK A01 T03070198  RH  052%=      5-min Rain = 0
KDO1 060031Z 10005KT 31/20 A2991 RMK A01 T03080198  RH  052%=      5-min Rain = 0
KDO1 060032Z 09006KT 31/20 A2991 RMK A01 T03080198  RH  052%=      5-min Rain = 0
KDO1 060033Z 09005KT 31/20 A2991 RMK A01 T03080198  RH  052%=      5-min Rain = 0
KDO1 060034Z 08005KT 31/20 A2991 RMK A01 T03070199  RH  052%=      5-min Rain = 0
KDO1 060035Z 06005KT 31/20 A2991 RMK A01 T03080199  RH  052%=      5-min Rain = 0
KDO1 060036Z 05004KT 31/20 A2992 RMK A01 T03080199  RH  052%=      5-min Rain = 0
KDO1 060037Z 06005KT 31/20 A2992 RMK A01 T03080198  RH  052%=      5-min Rain = 0
KDO1 060038Z 06005KT 31/20 A2992 RMK A01 T03080198  RH  052%=      5-min Rain = 0
KDO1 060039Z 07006KT 31/20 A2992 RMK A01 T03070199  RH  052%=      5-min Rain = 0
KDO1 060040Z 09008KT 31/20 A2992 RMK A01 T03070199  RH  053%=      5-min Rain = 0
KDO1 060041Z 10008KT 31/20 A2992 RMK A01 T03060201  RH  053%=      5-min Rain = 0
KDO1 060042Z 10008KT 31/20 A2992 RMK A01 T03050201  RH  054%=      5-min Rain = 0
KDO1 060043Z 11008G13KT 30/20 A2992 RMK A01 T03040202  RH  054%=      5-min Rain = 0
KDO1 060044Z 11010KT 30/20 A2992 RMK A01 T03040201  RH  054%=      5-min Rain = 0
KDO1 060045Z 12008KT 30/20 A2992 RMK A01 T03030201  RH  054%=      5-min Rain = 0
KDO1 060046Z 13008KT 30/20 A2992 RMK A01 T03030201  RH  055%=      5-min Rain = 0
KDO1 060047Z 13010KT 30/20 A2992 RMK A01 T03030201  RH  054%=      5-min Rain = 0
KDO1 060048Z 12008KT 30/20 A2992 RMK A01 T03030201  RH  054%=      5-min Rain = 0
KDO1 060049Z 12007KT 30/20 A2992 RMK A01 T03020200  RH  055%=      5-min Rain = 0
KDO1 060050Z 13005KT 30/20 A2992 RMK A01 T03020200  RH  055%=      5-min Rain = 0
KDO1 060051Z 13007KT 30/20 A2992 RMK A01 T03020201  RH  055%=      5-min Rain = 0
KDO1 060052Z 12007KT 30/20 A2992 RMK A01 T03010200  RH  055%=      5-min Rain = 0
KDO1 060053Z 12008KT 30/20 A2992 RMK A01 T03010201  RH  055%=      5-min Rain = 0
KDO1 060054Z 12008KT 30/20 A2992 RMK A01 T03010200  RH  055%=      5-min Rain = 0
KDO1 060055Z 12008KT 30/20 A2993 RMK A01 T03000201  RH  055%=      5-min Rain = 0
KDO1 060056Z 12008KT 30/20 A2993 RMK A01 T03000200  RH  055%=      5-min Rain = 0
KDO1 060057Z 13007KT 30/20 A2993 RMK A01 T03000200  RH  055%=      5-min Rain = 0
KDO1 060058Z 12008KT 30/20 A2993 RMK A01 T02990199  RH  055%=      5-min Rain = 0
KDO1 060059Z 13007KT 30/20 A2993 RMK A01 T03000199  RH  055%=      5-min Rain = 0
KDO1 060100Z 14008KT 30/20 A2993 RMK A01 T02990198  RH  055%=      5-min Rain = 0
KDO1 060101Z 13007KT 30/20 A2993 RMK A01 T03000198  RH  055%=      5-min Rain = 0
KDO1 060102Z 13006KT 30/20 A2993 RMK A01 T02990198  RH  054%=      5-min Rain = 0
KDO1 060103Z 13007KT 30/20 A2993 RMK A01 T03000198  RH  054%=      5-min Rain = 0
KDO1 060104Z 14008KT 30/20 A2993 RMK A01 T03000198  RH  054%=      5-min Rain = 0
KDO1 060105Z 14009KT 30/20 A2993 RMK A01 T02990197  RH  054%=      5-min Rain = 0
KDO1 060106Z 13008KT 30/20 A2993 RMK A01 T02990197  RH  054%=      5-min Rain = 0
KDO1 060107Z 13007KT 30/20 A2993 RMK A01 T02990197  RH  054%=      5-min Rain = 0
KDO1 060108Z 13007KT 30/20 A2993 RMK A01 T02980197  RH  055%=      5-min Rain = 0
KDO1 060109Z 12007KT 30/20 A2993 RMK A01 T02980197  RH  055%=      5-min Rain = 0
KDO1 060110Z 11008KT 30/20 A2993 RMK A01 T02980197  RH  055%=      5-min Rain = 0
KDO1 060111Z 11007KT 30/20 A2993 RMK A01 T02980197  RH  055%=      5-min Rain = 0
KDO1 060112Z 11005KT 30/20 A2993 RMK A01 T02980197  RH  055%=      5-min Rain = 0
KDO1 060113Z 10007KT 30/20 A2993 RMK A01 T02980198  RH  055%=      5-min Rain = 0
KDO1 060114Z 10006KT 30/20 A2993 RMK A01 T02980198  RH  055%=      5-min Rain = 0
KDO1 060115Z 10006KT 30/20 A2993 RMK A01 T02980198  RH  055%=      5-min Rain = 0
KDO1 060116Z 11006KT 30/20 A2993 RMK A01 T02980198  RH  055%=      5-min Rain = 0
KDO1 060117Z 12007KT 30/20 A2993 RMK A01 T02970197  RH  055%=      5-min Rain = 0
KDO1 060118Z 11006KT 30/20 A2993 RMK A01 T02970197  RH  055%=      5-min Rain = 0
KDO1 060119Z 11007KT 30/20 A2993 RMK A01 T02970197  RH  055%=      5-min Rain = 0
KDO1 060120Z 11006KT 30/20 A2993 RMK A01 T02970197  RH  055%=      5-min Rain = 0
KDO1 060121Z 11006KT 30/20 A2993 RMK A01 T02970198  RH  055%=      5-min Rain = 0
KDO1 060122Z 10005KT 30/20 A2993 RMK A01 T02970197  RH  055%=      5-min Rain = 0
KDO1 060123Z 08008KT 30/20 A2993 RMK A01 T02970197  RH  055%=      5-min Rain = 0
KDO1 060124Z 07007KT 30/20 A2993 RMK A01 T02960198  RH  055%=      5-min Rain = 0
KDO1 060125Z 09006KT 30/20 A2993 RMK A01 T02960197  RH  055%=      5-min Rain = 0
KDO1 060126Z 08006KT 30/20 A2993 RMK A01 T02960196  RH  055%=      5-min Rain = 0
KDO1 060127Z 08009KT 30/20 A2993 RMK A01 T02960195  RH  054%=      5-min Rain = 0
KDO1 060128Z 07009KT 30/19 A2993 RMK A01 T02960194  RH  054%=      5-min Rain = 0
KDO1 060129Z 07010KT 30/19 A2993 RMK A01 T02960193  RH  054%=      5-min Rain = 0
KDO1 060130Z 07011KT 30/19 A2993 RMK A01 T02960193  RH  054%=      5-min Rain = 0
KDO1 060131Z 06011KT 30/19 A2993 RMK A01 T02960193  RH  054%=      5-min Rain = 0
KDO1 060132Z 06011KT 30/19 A2993 RMK A01 T02960193  RH  054%=      5-min Rain = 0
KDO1 060133Z 06011KT 30/19 A2993 RMK A01 T02950193  RH  054%=      5-min Rain = 0
KDO1 060134Z 07010KT 30/19 A2993 RMK A01 T02950193  RH  054%=      5-min Rain = 0
KDO1 060135Z 08010KT 29/19 A2993 RMK A01 T02940193  RH  055%=      5-min Rain = 0
KDO1 060136Z 07010KT 29/19 A2993 RMK A01 T02940193  RH  055%=      5-min Rain = 0
KDO1 060137Z 07009KT 29/19 A2993 RMK A01 T02930194  RH  055%=      5-min Rain = 0
KDO1 060138Z 06007KT 29/19 A2993 RMK A01 T02930194  RH  055%=      5-min Rain = 0
KDO1 060139Z 06007KT 29/19 A2993 RMK A01 T02920194  RH  055%=      5-min Rain = 0
KDO1 060140Z 07011KT 29/19 A2993 RMK A01 T02920194  RH  056%=      5-min Rain = 0
KDO1 060141Z 07011KT 29/20 A2993 RMK A01 T02920195  RH  056%=      5-min Rain = 0
KDO1 060142Z 07009KT 29/20 A2993 RMK A01 T02910196  RH  056%=      5-min Rain = 0
KDO1 060143Z 07009KT 29/20 A2993 RMK A01 T02900196  RH  057%=      5-min Rain = 0
KDO1 060144Z 07012KT 29/20 A2993 RMK A01 T02890196  RH  057%=      5-min Rain = 0
KDO1 060145Z 07010KT 29/20 A2993 RMK A01 T02890196  RH  057%=      5-min Rain = 0
KDO1 060146Z 08007KT 29/20 A2993 RMK A01 T02880196  RH  058%=      5-min Rain = 0
KDO1 060147Z 07009KT 29/20 A2993 RMK A01 T02880196  RH  058%=      5-min Rain = 0
KDO1 060148Z 07009KT 29/20 A2993 RMK A01 T02870196  RH  058%=      5-min Rain = 0
KDO1 060149Z 07008KT 29/20 A2993 RMK A01 T02870196  RH  058%=      5-min Rain = 0
KDO1 060150Z 07010KT 29/20 A2993 RMK A01 T02860196  RH  058%=      5-min Rain = 0
KDO1 060151Z 07009KT 29/20 A2993 RMK A01 T02860196  RH  058%=      5-min Rain = 0
KDO1 060152Z 07009KT 29/20 A2993 RMK A01 T02860196  RH  058%=      5-min Rain = 0
KDO1 060153Z 07007KT 29/20 A2993 RMK A01 T02860196  RH  058%=      5-min Rain = 0
KDO1 060154Z 07010KT 29/20 A2993 RMK A01 T02850196  RH  058%=      5-min Rain = 0
KDO1 060155Z 07009KT 29/20 A2993 RMK A01 T02850196  RH  058%=      5-min Rain = 0
KDO1 060156Z 07010KT 29/20 A2993 RMK A01 T02850195  RH  058%=      5-min Rain = 0
KDO1 060157Z 07010KT 28/20 A2993 RMK A01 T02840195  RH  058%=      5-min Rain = 0
KDO1 060158Z 07009KT 28/20 A2993 RMK A01 T02840195  RH  059%=      5-min Rain = 0
KDO1 060159Z 07008KT 28/20 A2993 RMK A01 T02840195  RH  059%=      5-min Rain = 0
KDO1 060200Z 07007KT 28/20 A2993 RMK A01 T02840195  RH  059%=      5-min Rain = 0
KDO1 060201Z 07008KT 28/20 A2993 RMK A01 T02830195  RH  059%=      5-min Rain = 0
KDO1 060202Z 07007KT 28/20 A2993 RMK A01 T02830195  RH  059%=      5-min Rain = 0
KDO1 060203Z 07009KT 28/20 A2994 RMK A01 T02830195  RH  059%=      5-min Rain = 0
KDO1 060204Z 07007KT 28/20 A2994 RMK A01 T02830195  RH  059%=      5-min Rain = 0
KDO1 060205Z 07007KT 28/20 A2994 RMK A01 T02830195  RH  059%=      5-min Rain = 0
KDO1 060206Z 08007KT 28/20 A2994 RMK A01 T02830196  RH  059%=      5-min Rain = 0
KDO1 060207Z 07007KT 28/20 A2994 RMK A01 T02820195  RH  059%=      5-min Rain = 0
KDO1 060208Z 07009KT 28/20 A2994 RMK A01 T02830196  RH  059%=      5-min Rain = 0
KDO1 060209Z 07008KT 28/20 A2994 RMK A01 T02820196  RH  059%=      5-min Rain = 0
KDO1 060210Z 08008KT 28/20 A2994 RMK A01 T02820196  RH  059%=      5-min Rain = 0
KDO1 060211Z 08007KT 28/20 A2994 RMK A01 T02830196  RH  059%=      5-min Rain = 0
KDO1 060212Z 07008KT 28/20 A2994 RMK A01 T02830196  RH  059%=      5-min Rain = 0
KDO1 060213Z 08008KT 28/20 A2994 RMK A01 T02820196  RH  059%=      5-min Rain = 0
KDO1 060214Z 08009KT 28/20 A2994 RMK A01 T02820196  RH  059%=      5-min Rain = 0
KDO1 060215Z 09009KT 28/20 A2994 RMK A01 T02820196  RH  059%=      5-min Rain = 0
KDO1 060216Z 09011KT 28/20 A2994 RMK A01 T02830197  RH  060%=      5-min Rain = 0
KDO1 060217Z 10013KT 28/20 A2994 RMK A01 T02820200  RH  061%=      5-min Rain = 0
KDO1 060218Z 10011KT 28/20 A2994 RMK A01 T02790202  RH  063%=      5-min Rain = 0
KDO1 060219Z 10014KT 28/20 A2994 RMK A01 T02770203  RH  064%=      5-min Rain = 0
KDO1 060220Z 09011KT 28/20 A2994 RMK A01 T02750203  RH  065%=      5-min Rain = 0
KDO1 060221Z 10010KT 27/20 A2994 RMK A01 T02730203  RH  065%=      5-min Rain = 0
KDO1 060222Z 09008KT 27/20 A2994 RMK A01 T02720203  RH  066%=      5-min Rain = 0
KDO1 060223Z 10010KT 27/20 A2994 RMK A01 T02720203  RH  066%=      5-min Rain = 0
KDO1 060224Z 10009KT 27/20 A2995 RMK A01 T02720203  RH  066%=      5-min Rain = 0
KDO1 060225Z 10010KT 27/20 A2995 RMK A01 T02710204  RH  067%=      5-min Rain = 0
KDO1 060226Z 10011KT 27/20 A2995 RMK A01 T02710204  RH  067%=      5-min Rain = 0
KDO1 060227Z 10010KT 27/20 A2995 RMK A01 T02700204  RH  067%=      5-min Rain = 0
KDO1 060228Z 10010KT 27/20 A2995 RMK A01 T02690204  RH  067%=      5-min Rain = 0
KDO1 060229Z 11008KT 27/20 A2996 RMK A01 T02680204  RH  068%=      5-min Rain = 0
KDO1 060230Z 10011KT 27/20 A2996 RMK A01 T02680204  RH  068%=      5-min Rain = 0
KDO1 060231Z 11012KT 27/21 A2996 RMK A01 T02670205  RH  069%=      5-min Rain = 0
KDO1 060232Z 10012KT 27/21 A2996 RMK A01 T02660205  RH  069%=      5-min Rain = 0
KDO1 060233Z 11014KT 26/21 A2996 RMK A01 T02640205  RH  070%=      5-min Rain = 0
KDO1 060234Z 10014KT 26/21 A2996 RMK A01 T02630205  RH  070%=      5-min Rain = 0
KDO1 060235Z 10015KT 26/21 A2996 RMK A01 T02620205  RH  071%=      5-min Rain = 0
KDO1 060236Z 10012KT 26/21 A2996 RMK A01 T02610205  RH  071%=      5-min Rain = 0
KDO1 060237Z 10012KT 26/21 A2996 RMK A01 T02600205  RH  072%=      5-min Rain = 0
KDO1 060238Z 11011KT 26/21 A2996 RMK A01 T02600205  RH  072%=      5-min Rain = 0
KDO1 060239Z 11012KT 26/21 A2996 RMK A01 T02590205  RH  072%=      5-min Rain = 0
KDO1 060240Z 11012G17KT 26/21 A2996 RMK A01 T02590205  RH  072%=      5-min Rain = 0
KDO1 060241Z 11011KT 26/21 A2996 RMK A01 T02580205  RH  072%=      5-min Rain = 0
KDO1 060242Z 12009KT 26/21 A2996 RMK A01 T02580205  RH  073%=      5-min Rain = 0
KDO1 060243Z 11010KT 26/21 A2996 RMK A01 T02570205  RH  073%=      5-min Rain = 0
KDO1 060244Z 11011KT 26/20 A2996 RMK A01 T02570204  RH  073%=      5-min Rain = 0
KDO1 060245Z 11008KT 26/20 A2996 RMK A01 T02560204  RH  073%=      5-min Rain = 0
KDO1 060246Z 11009KT 26/21 A2996 RMK A01 T02560205  RH  073%=      5-min Rain = 0
KDO1 060247Z 11008KT 26/21 A2996 RMK A01 T02560205  RH  073%=      5-min Rain = 0
KDO1 060248Z 10008KT 26/21 A2996 RMK A01 T02560205  RH  073%=      5-min Rain = 0
KDO1 060249Z 09007KT 26/21 A2997 RMK A01 T02550205  RH  073%=      5-min Rain = 0
KDO1 060250Z 10006KT 26/21 A2997 RMK A01 T02550205  RH  073%=      5-min Rain = 0
KDO1 060251Z 10007KT 26/20 A2997 RMK A01 T02550204  RH  073%=      5-min Rain = 0
KDO1 060252Z 09007KT 26/20 A2997 RMK A01 T02550204  RH  073%=      5-min Rain = 0
KDO1 060253Z 10007KT 26/20 A2997 RMK A01 T02550204  RH  073%=      5-min Rain = 0
KDO1 060254Z 09008KT 26/21 A2997 RMK A01 T02550205  RH  074%=      5-min Rain = 0
KDO1 060255Z 09007KT 26/20 A2997 RMK A01 T02550204  RH  074%=      5-min Rain = 0
KDO1 060256Z 10006KT 25/20 A2997 RMK A01 T02540204  RH  074%=      5-min Rain = 0
KDO1 060257Z 11007KT 25/20 A2997 RMK A01 T02540204  RH  074%=      5-min Rain = 0
KDO1 060258Z 10006KT 26/20 A2997 RMK A01 T02550204  RH  074%=      5-min Rain = 0
KDO1 060259Z 10006KT 25/20 A2997 RMK A01 T02540204  RH  074%=      5-min Rain = 0
KDO1 060300Z 10005KT 25/20 A2997 RMK A01 T02540204  RH  074%=      5-min Rain = 0
KDO1 060301Z 11006KT 25/20 A2997 RMK A01 T02540204  RH  074%=      5-min Rain = 0
KDO1 060302Z 10006KT 25/20 A2997 RMK A01 T02540204  RH  074%=      5-min Rain = 0
KDO1 060303Z 09005KT 25/20 A2997 RMK A01 T02530204  RH  074%=      5-min Rain = 0
KDO1 060304Z 10005KT 25/20 A2997 RMK A01 T02540204  RH  074%=      5-min Rain = 0
KDO1 060305Z 10006KT 25/20 A2997 RMK A01 T02530204  RH  074%=      5-min Rain = 0
KDO1 060306Z 09005KT 25/20 A2997 RMK A01 T02530204  RH  074%=      5-min Rain = 0
KDO1 060307Z 09006KT 25/20 A2997 RMK A01 T02530204  RH  074%=      5-min Rain = 0
KDO1 060308Z 09008KT 25/20 A2997 RMK A01 T02530204  RH  074%=      5-min Rain = 0
KDO1 060309Z 08008KT 25/20 A2997 RMK A01 T02530204  RH  074%=      5-min Rain = 0
KDO1 060310Z 09008KT 25/20 A2997 RMK A01 T02530203  RH  074%=      5-min Rain = 0
KDO1 060311Z 09006KT 25/20 A2997 RMK A01 T02530204  RH  074%=      5-min Rain = 0
KDO1 060312Z 09008KT 25/20 A2997 RMK A01 T02530203  RH  074%=      5-min Rain = 0
KDO1 060313Z 09005KT 25/20 A2997 RMK A01 T02530203  RH  074%=      5-min Rain = 0
KDO1 060314Z 11006KT 25/20 A2997 RMK A01 T02530203  RH  074%=      5-min Rain = 0
KDO1 060315Z 10005KT 25/20 A2997 RMK A01 T02530203  RH  074%=      5-min Rain = 0
KDO1 060316Z 10006KT 25/20 A2997 RMK A01 T02530203  RH  074%=      5-min Rain = 0
KDO1 060317Z 10006KT 25/20 A2997 RMK A01 T02530203  RH  074%=      5-min Rain = 0
KDO1 060318Z 10007KT 25/20 A2997 RMK A01 T02530203  RH  074%=      5-min Rain = 0
KDO1 060319Z 10005KT 25/20 A2997 RMK A01 T02530203  RH  074%=      5-min Rain = 0
KDO1 060320Z 10005KT 25/20 A2998 RMK A01 T02530203  RH  074%=      5-min Rain = 0
KDO1 060321Z 10005KT 25/20 A2998 RMK A01 T02530203  RH  074%=      5-min Rain = 0
KDO1 060322Z 09005KT 25/20 A2998 RMK A01 T02530203  RH  074%=      5-min Rain = 0
KDO1 060323Z 09006KT 25/20 A2998 RMK A01 T02520203  RH  074%=      5-min Rain = 0
KDO1 060324Z 09005KT 25/20 A2998 RMK A01 T02520202  RH  074%=      5-min Rain = 0
KDO1 060325Z 08006KT 25/20 A2998 RMK A01 T02520202  RH  074%=      5-min Rain = 0
KDO1 060326Z 09005KT 25/20 A2998 RMK A01 T02520203  RH  074%=      5-min Rain = 0
KDO1 060327Z 09005KT 25/20 A2998 RMK A01 T02520203  RH  074%=      5-min Rain = 0
KDO1 060328Z 09005KT 25/20 A2998 RMK A01 T02520203  RH  074%=      5-min Rain = 0
KDO1 060329Z 09005KT 25/20 A2998 RMK A01 T02520203  RH  074%=      5-min Rain = 0
KDO1 060330Z 08005KT 25/20 A2998 RMK A01 T02520202  RH  074%=      5-min Rain = 0
KDO1 060331Z 09004KT 25/20 A2997 RMK A01 T02520203  RH  074%=      5-min Rain = 0
KDO1 060332Z 08005KT 25/20 A2997 RMK A01 T02520203  RH  074%=      5-min Rain = 0
KDO1 060333Z 08005KT 25/20 A2997 RMK A01 T02510202  RH  074%=      5-min Rain = 0
KDO1 060334Z 08005KT 25/20 A2998 RMK A01 T02510203  RH  074%=      5-min Rain = 0
KDO1 060335Z 09005KT 25/20 A2998 RMK A01 T02510203  RH  075%=      5-min Rain = 0
KDO1 060336Z 08005KT 25/20 A2998 RMK A01 T02510203  RH  075%=      5-min Rain = 0
KDO1 060337Z 08004KT 25/20 A2998 RMK A01 T02510203  RH  075%=      5-min Rain = 0
KDO1 060338Z 08005KT 25/20 A2998 RMK A01 T02510203  RH  075%=      5-min Rain = 0
KDO1 060339Z 09003KT 25/20 A2998 RMK A01 T02500203  RH  075%=      5-min Rain = 0
KDO1 060340Z 09004KT 25/20 A2998 RMK A01 T02500203  RH  075%=      5-min Rain = 0
KDO1 060341Z 09004KT 25/20 A2998 RMK A01 T02510203  RH  075%=      5-min Rain = 0
KDO1 060342Z 10003KT 25/20 A2998 RMK A01 T02500203  RH  075%=      5-min Rain = 0
KDO1 060343Z 10003KT 25/20 A2998 RMK A01 T02500203  RH  075%=      5-min Rain = 0
KDO1 060344Z 11003KT 25/20 A2998 RMK A01 T02500203  RH  075%=      5-min Rain = 0
KDO1 060345Z 11002KT 25/20 A2998 RMK A01 T02500203  RH  075%=      5-min Rain = 0
KDO1 060346Z 11002KT 25/20 A2998 RMK A01 T02500203  RH  075%=      5-min Rain = 0
KDO1 060347Z 09002KT 25/20 A2998 RMK A01 T02500203  RH  075%=      5-min Rain = 0
KDO1 060348Z 08001KT 25/20 A2998 RMK A01 T02490202  RH  075%=      5-min Rain = 0
KDO1 060349Z 08002KT 25/20 A2998 RMK A01 T02490202  RH  075%=      5-min Rain = 0
KDO1 060350Z 09003KT 25/20 A2998 RMK A01 T02490202  RH  075%=      5-min Rain = 0
KDO1 060351Z 08003KT 25/20 A2998 RMK A01 T02490202  RH  075%=      5-min Rain = 0
KDO1 060352Z 09003KT 25/20 A2998 RMK A01 T02490202  RH  075%=      5-min Rain = 0
KDO1 060353Z 10003KT 25/20 A2998 RMK A01 T02490202  RH  075%=      5-min Rain = 0
KDO1 060354Z 10003KT 25/20 A2998 RMK A01 T02490202  RH  075%=      5-min Rain = 0
KDO1 060355Z 10003KT 25/20 A2998 RMK A01 T02480202  RH  075%=      5-min Rain = 0
KDO1 060356Z 10002KT 25/20 A2998 RMK A01 T02480202  RH  075%=      5-min Rain = 0
KDO1 060357Z 10002KT 25/20 A2998 RMK A01 T02490202  RH  075%=      5-min Rain = 0
KDO1 060358Z 09003KT 25/20 A2998 RMK A01 T02480202  RH  075%=      5-min Rain = 0
KDO1 060359Z 10002KT 25/20 A2998 RMK A01 T02480202  RH  075%=      5-min Rain = 0
KDO1 060400Z 10002KT 25/20 A2998 RMK A01 T02480202  RH  075%=      5-min Rain = 0
KDO1 060401Z 09002KT 25/20 A2998 RMK A01 T02480202  RH  075%=      5-min Rain = 0
KDO1 060402Z 08002KT 25/20 A2998 RMK A01 T02470201  RH  076%=      5-min Rain = 0
KDO1 060403Z 09002KT 25/20 A2998 RMK A01 T02470201  RH  076%=      5-min Rain = 0
KDO1 060404Z 09002KT 25/20 A2999 RMK A01 T02470202  RH  076%=      5-min Rain = 0
KDO1 060405Z 09002KT 25/20 A2999 RMK A01 T02460201  RH  076%=      5-min Rain = 0
KDO1 060406Z 10002KT 25/20 A2999 RMK A01 T02460201  RH  076%=      5-min Rain = 0
KDO1 060407Z 10003KT 25/20 A2999 RMK A01 T02460201  RH  076%=      5-min Rain = 0
KDO1 060408Z 10002KT 25/20 A2999 RMK A01 T02460201  RH  076%=      5-min Rain = 0
KDO1 060409Z 10002KT 25/20 A2999 RMK A01 T02450201  RH  076%=      5-min Rain = 0
KDO1 060410Z 11002KT 25/20 A2999 RMK A01 T02450201  RH  076%=      5-min Rain = 0
KDO1 060411Z 10003KT 25/20 A2998 RMK A01 T02450201  RH  076%=      5-min Rain = 0
KDO1 060412Z 09003KT 24/20 A2998 RMK A01 T02440200  RH  077%=      5-min Rain = 0
KDO1 060413Z 09003KT 24/20 A2998 RMK A01 T02440201  RH  077%=      5-min Rain = 0
KDO1 060414Z 08003KT 24/20 A2998 RMK A01 T02430201  RH  077%=      5-min Rain = 0
KDO1 060415Z 07004KT 24/20 A2998 RMK A01 T02430201  RH  077%=      5-min Rain = 0
KDO1 060416Z 07004KT 24/20 A2998 RMK A01 T02430201  RH  077%=      5-min Rain = 0
KDO1 060417Z 06004KT 24/20 A2998 RMK A01 T02420201  RH  078%=      5-min Rain = 0
KDO1 060418Z 07005KT 24/20 A2998 RMK A01 T02420201  RH  078%=      5-min Rain = 0
KDO1 060419Z 07005KT 24/20 A2998 RMK A01 T02420201  RH  078%=      5-min Rain = 0
KDO1 060420Z 07005KT 24/20 A2998 RMK A01 T02420201  RH  078%=      5-min Rain = 0
KDO1 060421Z 07005KT 24/20 A2998 RMK A01 T02420201  RH  078%=      5-min Rain = 0
KDO1 060422Z 07005KT 24/20 A2998 RMK A01 T02420201  RH  078%=      5-min Rain = 0
KDO1 060423Z 07005KT 24/20 A2998 RMK A01 T02420201  RH  078%=      5-min Rain = 0
KDO1 060424Z 07004KT 24/20 A2998 RMK A01 T02420201  RH  078%=      5-min Rain = 0
KDO1 060425Z 07005KT 24/20 A2998 RMK A01 T02410201  RH  078%=      5-min Rain = 0
KDO1 060426Z 07004KT 24/20 A2998 RMK A01 T02420201  RH  078%=      5-min Rain = 0
KDO1 060427Z 08004KT 24/20 A2998 RMK A01 T02420201  RH  078%=      5-min Rain = 0
KDO1 060428Z 08004KT 24/20 A2998 RMK A01 T02420201  RH  078%=      5-min Rain = 0
KDO1 060429Z 08005KT 24/20 A2998 RMK A01 T02420201  RH  078%=      5-min Rain = 0
KDO1 060430Z 08004KT 24/20 A2998 RMK A01 T02410200  RH  078%=      5-min Rain = 0
KDO1 060431Z 08004KT 24/20 A2998 RMK A01 T02410200  RH  078%=      5-min Rain = 0
KDO1 060432Z 07005KT 24/20 A2998 RMK A01 T02410200  RH  078%=      5-min Rain = 0
KDO1 060433Z 07004KT 24/20 A2998 RMK A01 T02400200  RH  078%=      5-min Rain = 0
KDO1 060434Z 07003KT 24/20 A2998 RMK A01 T02400200  RH  078%=      5-min Rain = 0
KDO1 060435Z 06004KT 24/20 A2998 RMK A01 T02400200  RH  078%=      5-min Rain = 0
KDO1 060436Z 07004KT 24/20 A2998 RMK A01 T02400200  RH  078%=      5-min Rain = 0
KDO1 060437Z 06004KT 24/20 A2998 RMK A01 T02400200  RH  078%=      5-min Rain = 0
KDO1 060438Z 06004KT 24/20 A2998 RMK A01 T02400200  RH  078%=      5-min Rain = 0
KDO1 060439Z 06004KT 24/20 A2998 RMK A01 T02390200  RH  079%=      5-min Rain = 0
KDO1 060440Z 06004KT 24/20 A2998 RMK A01 T02390200  RH  079%=      5-min Rain = 0
KDO1 060441Z 06004KT 24/20 A2998 RMK A01 T02390200  RH  079%=      5-min Rain = 0
KDO1 060442Z 06004KT 24/20 A2998 RMK A01 T02390200  RH  079%=      5-min Rain = 0
KDO1 060443Z 06004KT 24/20 A2998 RMK A01 T02390200  RH  079%=      5-min Rain = 0
KDO1 060444Z 06004KT 24/20 A2998 RMK A01 T02390200  RH  079%=      5-min Rain = 0
KDO1 060445Z 06005KT 24/20 A2998 RMK A01 T02380200  RH  079%=      5-min Rain = 0
KDO1 060446Z 06004KT 24/20 A2998 RMK A01 T02390201  RH  079%=      5-min Rain = 0
KDO1 060447Z 05004KT 24/20 A2998 RMK A01 T02380200  RH  079%=      5-min Rain = 0
KDO1 060448Z 05004KT 24/20 A2998 RMK A01 T02380200  RH  079%=      5-min Rain = 0
KDO1 060449Z 06004KT 24/20 A2998 RMK A01 T02380200  RH  079%=      5-min Rain = 0
KDO1 060450Z 04004KT 24/20 A2998 RMK A01 T02380200  RH  079%=      5-min Rain = 0
KDO1 060451Z 04004KT 24/20 A2998 RMK A01 T02370200  RH  079%=      5-min Rain = 0
KDO1 060452Z 04004KT 24/20 A2998 RMK A01 T02380200  RH  080%=      5-min Rain = 0
KDO1 060453Z 04004KT 24/20 A2998 RMK A01 T02370200  RH  080%=      5-min Rain = 0
KDO1 060454Z 04003KT 24/20 A2999 RMK A01 T02370200  RH  080%=      5-min Rain = 0
KDO1 060455Z 04003KT 24/20 A2999 RMK A01 T02370200  RH  080%=      5-min Rain = 0
KDO1 060456Z 04003KT 24/20 A2999 RMK A01 T02370200  RH  080%=      5-min Rain = 0
KDO1 060457Z 04003KT 24/20 A2999 RMK A01 T02360200  RH  080%=      5-min Rain = 0
KDO1 060458Z 04002KT 24/20 A2999 RMK A01 T02360200  RH  080%=      5-min Rain = 0
KDO1 060459Z 03001KT 24/20 A2999 RMK A01 T02360200  RH  080%=      5-min Rain = 0

Page generated in 0.0781 seconds.